Date StartTime U_cm/s V_cm/s W_cm/s Ustd_cm/s Vstd_cm/s Wstd_cm/s Uvar_(cm/s)^2 Vvar_(cm/s)^2 Wvar_(cm/s)^2 KE_(m/s)^2 TurbulentKE_(m/s)^2 HorizWindSpeed_cm/s FrictionSpeec_cm/s DragCoef SpeedOfSound_m/s SonicTemperature_C Pressure_mb 
02/09/2014  00:00:00     -292.873     -115.886       -9.369       96.510       98.802       53.103     9314.211     9761.847     2819.956        6.059        1.095      314.967       55.688        0.031      337.653        9.769      861.216
02/09/2014  00:01:00     -139.292      -51.603       12.852      113.826       83.814       47.989    12956.400     7024.823     2302.974        2.225        1.114      148.543       56.163        0.143      337.596        9.675      861.194
02/09/2014  00:02:00     -186.179      -10.674       24.699      121.043      100.784       57.252    14651.460    10157.368     3277.794        3.173        1.404      186.484       62.646        0.113      337.556        9.607      861.165
02/09/2014  00:03:00     -177.158     -104.087       -0.341      122.661      105.307       63.164    15045.787    11089.600     3989.638        3.617        1.506      205.473       67.151        0.107      337.576        9.640      861.243
02/09/2014  00:04:00     -433.518      -80.328      -25.432      177.548      144.733       72.023    31523.127    20947.733     5187.327       12.634        2.883      440.897       72.786        0.027      337.523        9.549      861.281
02/09/2014  00:05:00     -262.259      -12.936        2.681      190.914      114.403       64.503    36448.055    13087.937     4160.586        6.131        2.685      262.578       80.291        0.094      337.505        9.521      861.240
02/09/2014  00:06:00     -335.849      -48.293      -15.651      162.173      102.531       69.214    26300.025    10512.520     4790.598        7.848        2.080      339.304       82.697        0.059      337.606        9.693      861.164
02/09/2014  00:07:00     -226.218      -71.331        4.040      110.727       93.763       50.009    12260.518     8791.481     2500.918        3.991        1.178      237.198       53.585        0.051      337.582        9.649      861.205
02/09/2014  00:08:00     -149.243      -67.134        5.953      101.462       80.119       46.631    10294.545     6419.134     2174.467        2.285        0.944      163.648       42.924        0.069      337.549        9.595      861.245
02/09/2014  00:09:00     -187.598     -174.270       -3.876      121.565      128.422       54.204    14777.936    16492.128     2938.110        4.989        1.710      256.053       53.832        0.044      337.537        9.574      861.242
02/09/2014  00:10:00     -272.049     -228.352        1.838      177.491      149.994       69.206    31503.037    22498.196     4789.405        9.246        2.940      355.183       87.370        0.061      337.471        9.465      861.228
02/09/2014  00:11:00     -351.414     -225.850      -16.649      155.015      141.653       74.497    24029.511    20065.687     5549.877       11.220        2.482      417.732       74.945        0.032      337.499        9.511      861.178
02/09/2014  00:12:00     -182.014     -135.100       -0.201      109.642      116.329       57.144    12021.327    13532.349     3265.493        4.009        1.441      226.674       51.005        0.051      337.459        9.445      861.050
02/09/2014  00:13:00     -320.533     -179.784        2.698      199.372      140.388       79.342    39749.393    19708.885     6295.137       10.040        3.288      367.510       96.406        0.069      337.463        9.451      861.062
02/09/2014  00:14:00     -272.464      -66.499       -3.317      145.544      136.874       79.368    21183.077    18734.474     6299.342        6.243        2.311      280.462       80.367        0.082      337.461        9.447      861.135
02/09/2014  00:15:00     -253.766     -182.621        4.091      153.742      113.484       74.096    23636.603    12878.556     5490.258        6.988        2.100      312.646       84.109        0.072      337.493        9.499      861.121
02/09/2014  00:16:00     -225.011     -180.919       -8.437      136.492      102.060       58.408    18630.149    10416.330     3411.500        5.794        1.623      288.724       52.140        0.033      337.485        9.487      861.037
02/09/2014  00:17:00     -170.794     -147.740        7.491      128.514      122.335       57.833    16515.751    14965.951     3344.677        4.293        1.741      225.827       62.765        0.077      337.513        9.536      861.097
02/09/2014  00:18:00     -262.929     -220.429       -8.033      144.502      108.625       68.468    20880.708    11799.446     4687.900        7.757        1.868      343.105       68.938        0.040      337.576        9.640      861.221
02/09/2014  00:19:00     -167.116      -77.509        4.619      124.096       71.154       57.022    15399.726     5062.852     3251.515        2.883        1.186      184.216       69.893        0.144      337.570        9.628      861.183
02/09/2014  00:20:00     -115.709      -90.063      -12.960       62.227       46.629       33.422     3872.173     2174.263     1116.997        1.441        0.358      146.629       32.971        0.051      337.546        9.591      861.176
02/09/2014  00:21:00     -158.614     -133.127        3.443      100.238       78.775       45.811    10047.638     6205.543     2098.668        3.062        0.918      207.078       36.967        0.032      337.569        9.629      861.179
02/09/2014  00:22:00     -288.104     -106.383       -4.907       95.548       96.693       47.330     9129.493     9349.463     2240.148        5.753        1.036      307.118       40.886        0.018      337.550        9.595      861.178
02/09/2014  00:23:00     -315.353     -155.061        0.198      158.281      155.666       75.586    25052.824    24231.944     5713.184        8.923        2.750      351.413       78.031        0.049      337.562        9.616      861.139
02/09/2014  00:24:00     -215.893     -106.128        6.958      155.779      125.594       74.812    24267.216    15773.753     5596.811        5.177        2.282      240.568       73.754        0.094      337.561        9.615      861.108
02/09/2014  00:25:00     -343.653     -199.858      -15.787      180.698      112.519       67.334    32651.623    12660.420     4533.900       10.406        2.492      397.543       65.729        0.027      337.594        9.670      861.142
02/09/2014  00:26:00     -366.747     -203.026       -9.884      159.467       99.156       80.641    25429.643     9831.932     6503.015       10.878        2.088      419.193       90.216        0.046      337.622        9.717      861.152
02/09/2014  00:27:00     -185.823     -128.718        4.505       85.622       82.957       48.717     7331.190     6881.820     2373.348        3.385        0.829      226.049       43.429        0.037      337.674        9.806      861.109
02/09/2014  00:28:00     -324.732     -134.320        9.296      225.902      128.963       73.982    51031.596    16631.413     5473.342        9.834        3.657      351.415       87.590        0.062      337.659        9.781      861.202
02/09/2014  00:29:00     -329.707     -103.675      -12.666      135.885       80.190       63.224    18464.738     6430.466     3997.300        7.425        1.445      345.623       69.824        0.041      337.653        9.769      861.220
02/09/2014  00:30:00     -231.625     -175.866      -11.015      132.523      117.262       64.696    17562.241    13750.295     4185.617        6.009        1.775      290.825       56.992        0.038      337.602        9.684      861.113
02/09/2014  00:31:00     -229.820     -178.245        3.347      140.665       89.146       60.717    19786.751     7947.057     3686.576        5.800        1.571      290.841       69.976        0.058      337.610        9.698      861.009
02/09/2014  00:32:00     -299.798     -178.288        2.401      163.641      129.968       72.910    26778.318    16891.635     5315.926        8.532        2.449      348.805       85.197        0.060      337.558        9.609      861.082
02/09/2014  00:33:00     -334.002     -153.459        0.895      127.725      125.496       70.801    16313.600    15749.313     5012.772        8.608        1.854      367.570       65.574        0.032      337.557        9.608      861.102
02/09/2014  00:34:00     -225.869      -73.114       -2.758      103.150      133.445       57.022    10639.830    17807.610     3251.543        4.403        1.585      237.408       53.017        0.050      337.542        9.582      860.979
02/09/2014  00:35:00     -235.176      -55.852      -12.362      143.894       95.259       57.265    20705.518     9074.344     3279.238        4.581        1.653      241.717       48.249        0.040      337.517        9.541      860.938
02/09/2014  00:36:00     -376.539     -199.679      -12.398      203.797      162.987       95.769    41533.166    26564.766     9171.758       12.952        3.863      426.208      103.778        0.059      337.507        9.523      860.929
02/09/2014  00:37:00     -292.099     -184.981        2.005      192.864      154.944       85.841    37196.488    24007.755     7368.626        9.404        3.429      345.745       88.029        0.065      337.485        9.487      860.967
02/09/2014  00:38:00     -334.035     -183.881       -0.223      205.189      163.792       81.429    42102.392    26827.869     6630.689       11.046        3.778      381.303       96.721        0.064      337.439        9.410      860.929
02/09/2014  00:39:00     -192.678      -94.124       17.990      187.010      152.836       91.534    34972.717    23358.956     8378.503        5.650        3.336      214.440      102.986        0.231      337.417        9.374      860.841
02/09/2014  00:40:00     -347.308     -256.324       -8.239      142.443      124.824       69.558    20290.052    15580.914     4838.384       11.354        2.035      431.654       73.021        0.029      337.470        9.462      860.854
02/09/2014  00:41:00     -369.453     -138.491       -6.511      214.240      197.676       80.558    45898.818    39075.688     6489.640       12.357        4.573      394.557       97.514        0.061      337.491        9.498      860.847
02/09/2014  00:42:00     -250.106     -175.221       -3.797      200.028      138.698       88.665    40011.126    19237.149     7861.519        8.018        3.355      305.378      105.870        0.120      337.469        9.461      860.826
02/09/2014  00:43:00     -333.668     -206.431       -9.370      215.726      133.155       79.130    46537.861    17730.356     6261.621       11.227        3.526      392.362       83.468        0.045      337.452        9.434      860.802
02/09/2014  00:44:00     -145.225     -102.711       24.141      143.848      143.910       75.748    20692.225    20709.951     5737.810        3.967        2.357      177.876       80.452        0.205      337.442        9.417      860.756
02/09/2014  00:45:00     -204.883     -124.615        6.130      197.552      128.857       90.046    39026.834    16604.230     8108.277        6.063        3.187      239.804       96.510        0.162      337.453        9.434      860.747
02/09/2014  00:46:00     -213.907     -151.824       22.039      162.247      119.922       79.805    26324.077    14381.213     6368.879        5.817        2.354      262.310       85.834        0.107      337.472        9.466      860.728
02/09/2014  00:47:00     -335.656     -237.781       -7.344      164.890      123.896       75.870    27188.733    15350.292     5756.301       10.877        2.415      411.345       81.096        0.039      337.500        9.514      860.733
02/09/2014  00:48:00     -289.467      -99.299      -11.556      177.787      135.038       66.712    31608.135    18235.240     4450.434        7.403        2.715      306.025       71.814        0.055      337.488        9.491      860.731
02/09/2014  00:49:00     -354.922     -120.042       -5.618      220.914      147.709       70.526    48803.102    21817.925     4973.873       10.799        3.780      374.673       86.223        0.053      337.457        9.441      860.735
02/09/2014  00:50:00     -474.058     -137.267      -19.385      189.831      142.146       84.941    36035.795    20205.352     7215.051       15.369        3.173      493.531       87.953        0.032      337.449        9.427      860.765
02/09/2014  00:51:00     -504.614     -103.202      -45.207      194.395      167.490       82.903    37789.600    28052.765     6872.837       17.001        3.636      515.059       82.395        0.026      337.546        9.588      860.787
02/09/2014  00:52:00     -269.890     -132.582      -17.538      173.445      120.592       74.710    30083.084    14542.462     5581.623        7.046        2.510      300.697       75.251        0.063      337.524        9.551      860.757
02/09/2014  00:53:00     -230.180     -150.210        2.743      187.716      137.057       90.621    35237.126    18784.660     8212.142        6.888        3.112      274.856       97.176        0.125      337.558        9.609      860.724
02/09/2014  00:54:00     -272.852     -112.651        7.655      188.116      117.540       76.483    35387.576    13815.601     5849.715        7.111        2.753      295.192       74.972        0.065      337.518        9.543      860.709
02/09/2014  00:55:00     -283.432      -97.356        6.647      162.980      135.271       69.886    26562.601    18298.188     4884.101        6.979        2.487      299.686       74.756        0.062      337.482        9.482      860.743
02/09/2014  00:56:00     -292.826     -103.351       -3.780      173.916      119.253       71.760    30246.928    14221.260     5149.465        7.302        2.481      310.529       83.460        0.072      337.453        9.433      860.788
02/09/2014  00:57:00     -494.739     -199.481      -15.597      188.302      172.650       89.759    35457.769    29807.952     8056.623       17.905        3.666      533.441       94.791        0.032      337.535        9.572      860.790
02/09/2014  00:58:00     -401.967     -225.754      -17.161      253.507      178.950       85.518    64266.039    32023.242     7313.355       15.820        5.180      461.024      112.190        0.059      337.593        9.668      860.787
02/09/2014  00:59:00     -304.538     -224.270       -0.682      172.194      115.673       84.014    29650.740    13380.195     7058.275        9.656        2.504      378.207       89.071        0.055      337.605        9.690      860.763
02/09/2014  01:00:00     -326.604     -184.629       -3.198      221.820      167.080       72.051    49204.113    27915.737     5191.326       11.152        4.116      375.177       80.085        0.046      337.627        9.726      860.742
02/09/2014  01:01:00     -285.422     -212.793       -6.724      191.076      130.167       91.201    36510.214    16943.439     8317.610        9.427        3.089      356.015       83.885        0.056      337.681        9.816      860.750
02/09/2014  01:02:00     -367.742     -143.655      -16.389      128.793      102.284       64.281    16587.551    10462.074     4132.002        9.365        1.559      394.805       57.541        0.021      337.643        9.752      860.749
02/09/2014  01:03:00     -197.556      -84.785        1.698      117.116      100.425       58.584    13716.116    10085.154     3432.069        3.672        1.362      214.981       68.422        0.101      337.632        9.734      860.694
02/09/2014  01:04:00     -231.111     -112.202       -3.036       91.632       68.176       45.828     8396.429     4647.951     2100.167        4.057        0.757      256.908       44.902        0.031      337.657        9.775      860.668
02/09/2014  01:05:00     -150.693     -159.273        4.672      111.141      120.084       54.484    12352.215    14420.262     2968.462        3.891        1.487      219.263       60.238        0.075      337.605        9.689      860.706
02/09/2014  01:06:00     -383.601     -244.398       -5.731      209.939      177.893       98.139    44074.370    31646.082     9631.359       14.612        4.268      454.841      110.390        0.059      337.555        9.605      860.744
02/09/2014  01:07:00     -371.956     -166.648        1.160      190.524      193.782       91.138    36299.474    37551.385     8306.144       12.412        4.108      407.582       90.040        0.049      337.555        9.605      860.758
02/09/2014  01:08:00     -425.399     -143.616        0.935      246.297      192.940       99.465    60662.296    37225.679     9893.311       15.466        5.389      448.987      120.657        0.072      337.555        9.605      860.719
02/09/2014  01:09:00     -360.897      -92.320       13.394      158.371      162.232       86.300    25081.221    26319.277     7447.649        9.889        2.942      372.517       81.132        0.047      337.537        9.575      860.660
02/09/2014  01:10:00     -408.306     -187.512       -9.387      251.214      205.239       91.873    63108.390    42122.953     8440.581       15.779        5.684      449.305      105.117        0.055      337.498        9.508      860.654
02/09/2014  01:11:00     -316.349     -157.227       -5.550      155.186      148.881       80.955    24082.826    22165.429     6553.643        8.880        2.640      353.266       66.006        0.035      337.470        9.462      860.711
02/09/2014  01:12:00     -455.793     -246.138      -12.755      278.063      165.535       94.338    77319.043    27401.964     8899.629       19.103        5.681      518.007      127.190        0.060      337.498        9.510      860.728
02/09/2014  01:13:00     -351.387      -89.044        1.972      207.964      175.616       85.692    43249.014    30841.079     7343.113       10.640        4.072      362.494      101.363        0.078      337.517        9.540      860.761
02/09/2014  01:14:00     -349.026      -31.503      -13.139      152.369      128.835       75.869    23216.219    16598.532     5756.116        8.427        2.279      350.445       76.683        0.048      337.649        9.763      860.775
02/09/2014  01:15:00     -240.030     -148.937       -9.052      141.390      143.996       65.057    19991.250    20734.919     4232.374        6.241        2.248      282.483       66.540        0.055      337.613        9.702      860.816
02/09/2014  01:16:00     -308.300     -193.451       -3.516      178.406      126.167       74.350    31828.593    15917.987     5527.906        9.287        2.664      363.968       66.282        0.033      337.583        9.651      860.887
02/09/2014  01:17:00     -291.072     -166.582       -2.178      194.821      139.245       78.727    37955.239    19389.157     6197.870        8.800        3.177      335.369       99.039        0.087      337.565        9.621      860.952
02/09/2014  01:18:00     -245.024     -162.242        6.228      178.984      147.760       80.786    32035.118    21833.000     6526.355        7.338        3.020      293.870       91.669        0.097      337.607        9.692      860.926
02/09/2014  01:19:00     -196.777     -192.177       21.730      180.029      161.376       80.568    32410.263    26042.110     6491.240        7.052        3.247      275.051       96.213        0.122      337.692        9.836      860.916
02/09/2014  01:20:00     -320.813     -359.827       -5.928      237.425      183.008      101.657    56370.465    33491.899    10334.087       16.629        5.010      482.075      114.910        0.057      337.737        9.911      860.994
02/09/2014  01:21:00     -278.981     -228.608       21.030      197.566      178.184       94.032    39032.415    31749.593     8842.001       10.506        3.981      360.682      114.436        0.101      337.706        9.860      861.059
02/09/2014  01:22:00     -318.110     -272.003       -4.049      133.090      141.723       68.734    17712.846    20085.499     4724.298       10.885        2.126      418.544       78.636        0.035      337.770        9.966      861.082
02/09/2014  01:23:00     -327.385      -98.032       -8.997      153.566      174.318       71.176    23582.524    30386.811     5066.064        8.794        2.952      341.747       65.269        0.036      337.741        9.916      861.020
02/09/2014  01:24:00     -238.468      -32.786       -6.213      131.427      109.354       57.989    17273.161    11958.363     3362.761        4.528        1.630      240.711       59.562        0.061      337.720        9.882      860.947
02/09/2014  01:25:00     -237.885     -179.564       15.577      184.003      142.185       70.603    33857.283    20216.678     4984.830        7.406        2.953      298.048       83.817        0.079      337.721        9.883      860.901
02/09/2014  01:26:00     -371.236     -158.644      -12.989      211.553      135.859       82.554    44754.601    18457.789     6815.190       11.658        3.501      403.713       93.951        0.054      337.639        9.746      860.910
02/09/2014  01:27:00     -407.392     -264.072      -18.891      155.832      147.682       75.074    24283.535    21810.038     5636.047       14.388        2.586      485.492       76.099        0.025      337.589        9.662      860.958
02/09/2014  01:28:00     -256.797      -80.974        4.045      165.496      137.334       71.422    27388.779    18860.640     5101.044        6.192        2.568      269.261       88.995        0.109      337.544        9.586      861.002
02/09/2014  01:29:00     -343.785     -253.373       -3.100      174.572      179.991       84.172    30475.401    32396.782     7084.869       12.616        3.498      427.067       85.491        0.040      337.608        9.694      861.005
02/09/2014  01:30:00     -498.821     -334.532      -12.854      224.177      180.905      100.562    50255.367    32726.572    10112.719       22.698        4.655      600.611      115.130        0.037      337.647        9.760      860.987
02/09/2014  01:31:00     -403.090     -234.251      -19.878      167.530      114.317       76.238    28066.153    13068.471     5812.291       13.234        2.347      466.214       89.125        0.037      337.617        9.710      860.950
02/09/2014  01:32:00     -314.023     -172.515       -8.270      127.465      119.084       56.497    16247.303    14181.101     3191.872        8.102        1.681      358.290       63.975        0.032      337.603        9.684      860.964
02/09/2014  01:33:00     -304.142     -172.681      -19.184      125.313      101.980       62.383    15703.330    10399.975     3891.663        7.634        1.500      349.744       72.324        0.043      337.566        9.623      861.015
02/09/2014  01:34:00     -235.993     -150.632       -7.037      151.996      133.250       60.813    23102.731    17755.598     3698.170        6.149        2.228      279.969       76.063        0.074      337.584        9.654      860.953
02/09/2014  01:35:00     -158.931     -283.539       -4.926      113.172      108.718       59.766    12807.791    11819.688     3572.026        6.693        1.410      325.044       59.801        0.034      337.548        9.591      860.977
02/09/2014  01:36:00     -253.405      -70.928      -11.206      125.455      156.897       53.411    15739.048    24616.575     2852.688        5.628        2.160      263.144       61.859        0.055      337.552        9.597      860.894
02/09/2014  01:37:00     -105.240      -55.545      -12.107       84.890       94.040       45.689     7206.382     8843.598     2087.481        1.622        0.907      118.999       47.841        0.162      337.532        9.568      860.790
02/09/2014  01:38:00     -190.129      -82.785       19.358      177.715      111.689       68.033    31582.735    12474.513     4628.493        4.602        2.434      207.370       74.467        0.129      337.548        9.595      860.937
02/09/2014  01:39:00     -215.899     -215.491        0.056      136.788      113.011       67.839    18710.869    12771.557     4602.178        6.456        1.804      305.039       66.516        0.048      337.594        9.671      861.032
02/09/2014  01:40:00     -250.508      -43.718      -22.559      128.831      113.947       60.511    16597.447    12983.833     3661.622        4.920        1.662      254.294       66.437        0.068      337.585        9.653      861.004
02/09/2014  01:41:00     -154.149      -33.694       -0.097      112.725       79.307       50.983    12706.946     6289.631     2599.294        2.324        1.080      157.789       57.150        0.131      337.565        9.623      861.029
02/09/2014  01:42:00     -100.019      -77.999        0.994       75.389       79.595       46.477     5683.455     6335.341     2160.149        1.513        0.709      126.837       41.136        0.105      337.585        9.656      861.012
02/09/2014  01:43:00     -188.119     -145.086      -12.750      120.029       64.153       42.617    14406.874     4115.594     1816.179        3.847        1.017      237.568       51.099        0.046      337.641        9.749      860.960
02/09/2014  01:44:00     -248.556     -182.097        0.791      108.826       83.342       52.859    11843.206     6945.937     2794.042        5.826        1.079      308.122       52.349        0.029      337.598        9.677      861.063
02/09/2014  01:45:00     -271.490     -205.409      -12.004      134.371      106.350       57.355    18055.542    11310.367     3289.582        7.434        1.633      340.440       68.937        0.041      337.566        9.621      861.190
02/09/2014  01:46:00     -199.103     -176.132       -2.943      119.774       95.047       58.853    14345.807     9033.925     3463.668        4.875        1.342      265.828       53.778        0.041      337.522        9.550      861.158
02/09/2014  01:47:00     -139.024     -188.941       -8.945       80.018       78.334       40.685     6402.882     6136.233     1655.242        3.465        0.710      234.577       33.573        0.020      337.530        9.563      861.133
02/09/2014  01:48:00     -166.419     -178.784      -11.380       91.016       98.117       51.526     8283.935     9627.014     2654.902        4.017        1.028      244.252       49.124        0.040      337.515        9.537      861.190
02/09/2014  01:49:00     -273.466     -192.574       -6.131      107.838       92.355       51.987    11629.138     8529.394     2702.632        6.738        1.143      334.467       45.263        0.018      337.500        9.511      861.140
02/09/2014  01:50:00     -207.178     -108.050        6.184       99.761       74.820       50.178     9952.158     5598.083     2517.784        3.635        0.903      233.661       55.121        0.056      337.460        9.447      861.155
02/09/2014  01:51:00     -163.380     -132.098       -3.373       89.331      108.506       41.838     7980.097    11773.557     1750.412        3.282        1.075      210.102       50.969        0.059      337.498        9.508      861.243
02/09/2014  01:52:00     -319.561     -153.046       -8.943      153.164      118.593       62.754    23459.244    14064.239     3938.088        8.353        2.073      354.319       58.564        0.027      337.494        9.503      861.316
02/09/2014  01:53:00     -317.085     -101.806       -0.384      200.013      162.822       78.710    40005.006    26510.969     6195.262        9.180        3.636      333.028       94.482        0.080      337.539        9.578      861.298
02/09/2014  01:54:00     -266.949     -210.323       -2.341      170.450      184.933       84.011    29053.200    34200.383     7057.879        9.289        3.516      339.849       85.533        0.063      337.596        9.672      861.298
02/09/2014  01:55:00     -324.222     -154.759       -1.937      204.256      167.077       73.446    41720.648    27914.821     5394.351       10.204        3.751      359.264       89.187        0.062      337.589        9.662      861.250
02/09/2014  01:56:00     -330.699     -104.201       -7.025      143.276      129.186       60.231    20528.068    16689.054     3627.741        8.055        2.042      346.727       66.416        0.037      337.580        9.644      861.215
02/09/2014  01:57:00     -281.356     -272.208       -9.139      141.321      116.596       63.566    19971.603    13594.613     4040.665        9.547        1.880      391.482       62.448        0.025      337.680        9.814      861.220
02/09/2014  01:58:00     -352.314     -215.596      -11.289      223.310      148.393       70.199    49867.377    22020.357     4927.830       12.376        3.841      413.046       66.287        0.026      337.637        9.743      861.241
02/09/2014  01:59:00     -363.328     -197.222      -15.913      116.735      117.055       65.261    13627.015    13701.778     4258.962       10.137        1.579      413.405       51.344        0.015      337.574        9.636      861.316
02/09/2014  02:00:00     -377.014     -214.376      -11.739      164.189      132.838       79.104    26958.189    17646.038     6257.371       11.954        2.543      433.701       87.718        0.041      337.601        9.680      861.337
02/09/2014  02:01:00     -395.805     -260.654      -16.971      187.659      145.975       79.898    35215.972    21308.619     6383.731       14.389        3.145      473.922       92.114        0.038      337.607        9.693      861.324
02/09/2014  02:02:00     -248.811     -212.342        6.994      166.040      126.507       95.137    27569.270    16003.990     9051.019        7.982        2.631      327.103      100.073        0.094      337.536        9.572      861.298
02/09/2014  02:03:00     -300.365     -188.121       -2.973      140.727      155.420       62.905    19804.017    24155.275     3957.002        8.676        2.396      354.413       72.202        0.042      337.509        9.526      861.289
02/09/2014  02:04:00     -375.443     -256.210      -14.161      242.048      163.645       87.340    58587.378    26779.781     7628.247       14.988        4.650      454.534      101.181        0.050      337.500        9.513      861.267
02/09/2014  02:05:00     -295.091      -98.152      -10.044      193.397      130.007       81.515    37402.517    16901.783     6644.692        7.887        3.047      310.986       83.249        0.072      337.464        9.455      861.288
02/09/2014  02:06:00     -321.302     -100.283       -9.952      196.387      166.472       73.459    38567.676    27712.868     5396.247        9.252        3.584      336.588       97.302        0.084      337.429        9.393      861.243
02/09/2014  02:07:00     -380.381     -121.814      -15.218      238.442      132.703       86.725    56854.673    17610.210     7521.189       12.086        4.099      399.410      109.449        0.075      337.378        9.309      861.156
02/09/2014  02:08:00     -228.277     -140.222       -0.219      146.634      104.347       67.690    21501.392    10888.398     4581.960        5.436        1.849      267.904       66.425        0.061      337.364        9.283      861.247
02/09/2014  02:09:00     -144.808      -97.127        0.288       85.846       82.709       52.171     7369.450     6840.751     2721.834        2.366        0.847      174.364       42.055        0.058      337.339        9.243      861.250
02/09/2014  02:10:00     -375.182      -94.919      -16.915      187.873      135.594       78.146    35296.140    18385.619     6106.807       10.491        2.989      387.002       82.976        0.046      337.296        9.171      861.209
02/09/2014  02:11:00     -314.361      -79.221      -15.779      152.872      117.339       77.681    23369.950    13768.384     6034.273        7.425        2.159      324.189       88.456        0.074      337.319        9.211      861.207
02/09/2014  02:12:00     -333.902     -236.241      -37.242      154.745      190.698       89.613    23946.021    36365.677     8030.552       11.850        3.417      409.023       82.997        0.041      337.334        9.235      861.224
02/09/2014  02:13:00     -438.629     -258.874       -6.505      191.517      207.049      104.880    36678.790    42869.423    10999.794       17.498        4.527      509.325      106.507        0.044      337.307        9.189      861.198
02/09/2014  02:14:00     -294.490     -123.951       13.648      227.884      177.327       82.354    51931.109    31444.813     6782.147        9.620        4.508      319.512      107.461        0.113      337.285        9.154      861.224
02/09/2014  02:15:00     -345.771     -191.411       -8.418      148.815      141.176       75.420    22145.868    19930.543     5688.247       10.201        2.388      395.216       74.272        0.035      337.246        9.087      861.211
02/09/2014  02:16:00     -314.527     -148.175        3.172      160.036      172.906       85.933    25611.524    29896.556     7384.438        9.188        3.145      347.682       89.816        0.067      337.275        9.137      861.207
02/09/2014  02:17:00     -432.287     -125.204       -9.442      213.049      157.771       86.532    45389.979    24891.615     7487.757       14.019        3.888      450.053      108.005        0.058      337.309        9.193      861.186
02/09/2014  02:18:00     -226.913      -77.194        0.727      162.419      143.666       61.409    26379.792    20639.801     3771.029        5.411        2.540      239.684       69.163        0.083      337.327        9.224      861.209
02/09/2014  02:19:00     -429.379     -321.635      -24.776      195.642      134.351       90.283    38275.700    18050.203     8150.939       17.644        3.224      536.485      101.083        0.036      337.441        9.413      861.196
02/09/2014  02:20:00     -491.378     -193.187       -2.405      186.769      173.576       92.192    34882.589    30128.487     8499.365       17.613        3.676      527.990      100.800        0.036      337.371        9.296      861.223
02/09/2014  02:21:00     -306.444     -307.945       -5.491      183.277      161.227       87.567    33590.466    25994.228     7667.968       12.800        3.363      434.440       99.548        0.053      337.356        9.272      861.250
02/09/2014  02:22:00     -224.964     -137.973       17.890      188.312      137.695       74.206    35461.333    18959.857     5506.570        6.493        2.996      263.904       84.878        0.103      337.344        9.251      861.191
02/09/2014  02:23:00     -394.040     -183.467      -15.708      202.229      131.686       78.280    40896.500    17341.135     6127.776       12.676        3.218      434.658       95.660        0.048      337.311        9.198      861.156
02/09/2014  02:24:00     -365.131     -118.650       -2.126      238.017      135.599       84.148    56652.002    18387.113     7080.927       11.475        4.106      383.925       95.514        0.062      337.304        9.185      861.172
02/09/2014  02:25:00     -234.874     -130.278      -14.051      124.946      125.834       68.863    15611.535    15834.079     4742.076        5.425        1.809      268.585       71.190        0.070      337.291        9.163      861.137
02/09/2014  02:26:00     -160.773      -77.307       14.403      133.717      108.308       62.733    17880.256    11730.563     3935.484        3.278        1.677      178.394       73.193        0.168      337.347        9.256      861.160
02/09/2014  02:27:00     -348.201     -129.996      -10.900      185.898      168.837       85.810    34558.213    28505.889     7363.284       10.433        3.521      371.675       91.403        0.060      337.251        9.098      861.135
02/09/2014  02:28:00     -271.672      -87.525      -11.205      197.441      148.326       72.557    38982.927    22000.483     5264.487        7.391        3.312      285.423       96.181        0.114      337.247        9.090      861.103
02/09/2014  02:29:00     -257.878     -218.672        3.643      211.798      137.897       85.710    44858.458    19015.540     7346.277        9.276        3.561      338.111      106.465        0.099      337.330        9.230      861.120
02/09/2014  02:30:00     -265.271     -202.932       -1.881      134.922      101.433       63.879    18203.848    10288.606     4080.499        7.206        1.629      333.991       65.592        0.039      337.356        9.271      861.155
02/09/2014  02:31:00     -324.005     -199.573       -5.021      174.982      136.624       76.338    30618.750    18666.125     5827.558        9.996        2.756      380.537       83.723        0.048      337.324        9.217      861.150
02/09/2014  02:32:00     -231.519     -169.761       21.703      201.083      130.313       82.580    40434.472    16981.371     6819.472        7.355        3.212      287.089      102.443        0.127      337.280        9.144      861.047
02/09/2014  02:33:00     -384.973     -115.876       -6.351      175.435      143.722       69.299    30777.296    20655.923     4802.401       10.894        2.812      402.035       59.261        0.022      337.318        9.207      861.016
02/09/2014  02:34:00     -317.757     -202.210      -18.169      163.715      142.723       77.982    26802.760    20369.878     6081.177        9.771        2.663      376.641       88.488        0.055      337.304        9.184      861.064
02/09/2014  02:35:00     -347.326     -125.626      -14.358      120.038      111.873       61.217    14409.090    12515.580     3747.544        8.364        1.534      369.347       40.154        0.012      337.269        9.127      861.067
02/09/2014  02:36:00     -263.688     -194.171        6.694      171.449      157.241       77.926    29394.715    24724.602     6072.525        8.372        3.010      327.465       81.444        0.062      337.290        9.161      860.998
02/09/2014  02:37:00     -358.604     -186.789      -27.966      115.034      107.555       65.621    13232.928    11567.974     4306.181        9.668        1.455      404.335       47.699        0.014      337.296        9.173      860.958
02/09/2014  02:38:00     -301.306     -200.690       -3.761      223.518      131.796       79.089    49960.238    17370.077     6255.015       10.232        3.679      362.025       86.430        0.057      337.281        9.147      860.987
02/09/2014  02:39:00     -349.279     -251.808        0.704      204.232      172.357       98.758    41710.551    29707.107     9753.166       13.327        4.059      430.585      112.266        0.068      337.296        9.172      860.987
02/09/2014  02:40:00     -275.307     -190.607       -0.033      116.328       95.281       63.943    13532.262     9078.436     4088.714        6.941        1.335      334.850       49.990        0.022      337.255        9.103      860.974
02/09/2014  02:41:00     -224.411     -167.460        2.387      133.778      101.833       74.226    17896.539    10369.932     5509.478        5.609        1.689      280.005       74.674        0.071      337.246        9.088      861.003
02/09/2014  02:42:00     -230.118      -87.291        7.156      165.828      122.378       74.507    27498.971    14976.390     5551.347        5.432        2.401      246.117       76.280        0.096      337.188        8.993      860.967
02/09/2014  02:43:00     -311.319     -131.509       -9.368      126.791      138.672       68.386    16075.896    19229.935     4676.682        7.713        1.999      337.956       61.966        0.034      337.164        8.952      860.953
02/09/2014  02:44:00     -268.350      -71.533       -8.576      143.807      105.104       62.734    20680.497    11046.759     3935.501        5.643        1.783      277.720       69.896        0.063      337.175        8.971      860.972
02/09/2014  02:45:00     -285.466     -217.448      -11.999      175.348      115.530       70.359    30746.801    13347.182     4950.349        8.897        2.452      358.852       76.579        0.046      337.210        9.029      860.984
02/09/2014  02:46:00     -239.947     -291.983        1.152      147.347      166.997       77.836    21711.108    27888.056     6058.465        9.923        2.783      377.927       73.818        0.038      337.229        9.060      861.011
02/09/2014  02:47:00     -271.603     -236.794       -8.551      158.694      131.700       78.080    25183.858    17344.789     6096.442        8.926        2.431      360.332       71.829        0.040      337.166        8.954      860.972
02/09/2014  02:48:00     -352.865     -228.716      -18.457      148.516      129.078       77.979    22056.895    16661.040     6080.727       11.097        2.240      420.505       76.607        0.033      337.156        8.937      860.956
02/09/2014  02:49:00     -363.489      -80.706       -3.000      191.283      172.297       81.629    36589.244    29686.319     6663.288       10.578        3.647      372.341       81.309        0.048      337.224        9.052      860.961
02/09/2014  02:50:00     -291.143     -223.385      -12.422      133.582       80.793       61.655    17844.031     6527.513     3801.301        8.149        1.409      366.967       67.150        0.033      337.220        9.044      860.972
02/09/2014  02:51:00     -124.455     -136.689       15.288      127.947      112.229       66.189    16370.556    12595.249     4380.926        3.387        1.667      184.859       70.179        0.144      337.224        9.052      860.948
02/09/2014  02:52:00     -355.609     -254.414       -0.721      212.956      166.981       88.509    45350.202    27882.536     7833.903       13.611        4.053      437.246      108.264        0.061      337.143        8.916      860.955
02/09/2014  02:53:00     -375.523     -216.066      -17.227      165.945      117.836       65.143    27537.902    13885.361     4243.640       11.682        2.283      433.246       68.931        0.025      337.100        8.842      861.008
02/09/2014  02:54:00     -334.113     -163.329       -0.261      201.819      138.640       94.441    40731.084    19220.929     8919.137       10.358        3.444      371.898       81.664        0.048      337.126        8.887      861.039
02/09/2014  02:55:00     -281.221     -187.014       -6.107      169.869      115.786       67.399    28855.524    13406.494     4542.648        8.044        2.340      337.727       72.256        0.046      337.173        8.964      861.019
02/09/2014  02:56:00     -231.562     -137.552        6.060      151.481      106.296       64.194    22946.613    11298.779     4120.808        5.546        1.918      269.335       70.862        0.069      337.136        8.904      860.934
02/09/2014  02:57:00     -278.408     -205.880       -1.625      157.862      115.393       70.832    24920.353    13315.529     5017.202        8.157        2.163      346.262       71.966        0.043      337.109        8.857      860.888
02/09/2014  02:58:00     -184.897     -151.044       -0.215      152.451       90.692       51.305    23241.193     8225.011     2632.253        4.554        1.705      238.749       61.562        0.066      337.084        8.816      860.875
02/09/2014  02:59:00     -171.791      -64.982        2.340      129.020      102.945       66.267    16646.216    10597.629     4391.274        3.268        1.582      183.670       65.067        0.126      337.026        8.718      860.835
02/09/2014  03:00:00     -158.484     -109.258       -2.840      108.108       97.042       52.865    11687.408     9417.078     2794.667        3.048        1.195      192.496       61.058        0.101      337.032        8.729      860.824
02/09/2014  03:01:00     -270.311     -124.718        3.402      112.887      103.028       61.469    12743.456    10614.704     3778.474        5.788        1.357      297.696       54.199        0.033      337.017        8.703      860.835
02/09/2014  03:02:00     -253.605     -189.173        3.212      142.982      110.968       61.865    20443.974    12313.840     3827.246        6.834        1.829      316.389       70.020        0.049      336.999        8.674      860.877
02/09/2014  03:03:00     -362.522     -184.603      -16.880      133.894      127.810       57.822    17927.722    16335.275     3343.345       10.169        1.880      406.817       59.783        0.022      336.973        8.629      860.896
02/09/2014  03:04:00     -358.566     -187.641      -24.855      143.397      129.396       77.114    20562.809    16743.211     5946.535       10.382        2.163      404.696       79.526        0.039      336.940        8.575      860.904
02/09/2014  03:05:00     -221.793     -110.962       16.031      149.991       99.970       69.764    22497.282     9994.053     4866.956        4.955        1.868      248.001       75.662        0.093      336.923        8.547      860.931
02/09/2014  03:06:00     -219.174     -133.420        2.394      147.398      110.897       68.372    21726.235    12298.132     4674.740        5.226        1.935      256.589       69.505        0.073      336.906        8.519      860.944
02/09/2014  03:07:00     -322.594     -161.228       -3.231      179.153      133.433       72.164    32095.912    17804.243     5207.704        9.258        2.755      360.640       87.051        0.058      336.867        8.453      860.952
02/09/2014  03:08:00     -229.270     -171.289       -9.909      110.729       80.104       53.455    12260.829     6416.709     2857.410        5.176        1.077      286.190       54.349        0.036      336.884        8.480      860.956
02/09/2014  03:09:00     -213.417     -117.229        3.040      108.782       86.333       65.060    11833.545     7453.303     4232.868        4.140        1.176      243.494       60.788        0.062      336.873        8.463      860.943
02/09/2014  03:10:00     -324.024     -107.236        1.058      163.869      106.683       73.117    26853.177    11381.306     5346.026        8.003        2.179      341.308       78.655        0.053      336.857        8.435      860.912
02/09/2014  03:11:00     -291.874     -224.845      -24.263      134.820      105.494       59.087    18176.410    11129.031     3491.282        8.456        1.640      368.437       59.945        0.026      336.898        8.506      860.910
02/09/2014  03:12:00     -302.650     -186.598       -6.764      147.513      118.029       62.917    21760.131    13930.776     3958.524        8.305        1.982      355.550       65.380        0.034      336.843        8.413      860.924
02/09/2014  03:13:00     -377.920     -152.003      -11.892      154.421      123.480       57.923    23845.793    15247.305     3355.067       10.425        2.122      407.343       65.702        0.026      336.822        8.378      860.938
02/09/2014  03:14:00     -317.703     -171.404      -12.127      135.386      124.133       71.558    18329.376    15409.007     5120.533        8.465        1.943      360.991       82.924        0.053      336.849        8.423      861.006
02/09/2014  03:15:00     -328.540      -67.851       -2.106      217.433      131.320       82.453    47277.251    17245.018     6798.477        9.192        3.566      335.473       95.197        0.081      336.840        8.410      861.054
02/09/2014  03:16:00     -335.664     -152.520      -25.137      195.573      145.892       84.152    38248.658    21284.590     7081.555       10.158        3.331      368.690       96.503        0.069      336.834        8.397      861.074
02/09/2014  03:17:00     -288.905     -140.539       -8.003      149.405      174.273       75.505    22321.777    30371.241     5701.018        8.083        2.920      321.274       62.580        0.038      336.826        8.385      861.038
02/09/2014  03:18:00     -352.176     -123.250       -7.134      168.703      134.310       70.248    28460.541    18039.191     4934.743        9.534        2.572      373.120       83.260        0.050      336.833        8.397      861.023
02/09/2014  03:19:00     -268.749      -83.375       -0.663      125.961      108.743       63.764    15866.298    11824.982     4065.790        5.546        1.588      281.385       59.523        0.045      336.800        8.341      861.107
02/09/2014  03:20:00     -247.636      -69.568       -1.748      159.558      129.551       76.884    25458.680    16783.395     5911.193        5.715        2.408      257.223       74.988        0.085      336.833        8.398      861.095
02/09/2014  03:21:00     -270.194     -202.937       -2.396      153.389      125.212       69.830    23528.223    15677.937     4876.246        7.913        2.204      337.917       76.824        0.052      336.863        8.447      861.035
02/09/2014  03:22:00     -229.554     -199.145       -3.776      125.010       93.834       56.620    15627.545     8804.794     3205.816        6.000        1.382      303.897       53.383        0.031      336.850        8.425      861.058
02/09/2014  03:23:00     -290.506     -170.535       -0.665      146.479      116.034       69.540    21456.028    13463.977     4835.810        7.661        1.988      336.862       78.832        0.055      336.796        8.336      861.069
02/09/2014  03:24:00     -346.990     -135.165      -19.813      146.383      135.160       76.404    21428.018    18268.162     5837.528        9.229        2.277      372.386       73.540        0.039      336.851        8.425      860.994
02/09/2014  03:25:00     -304.168      -95.517       -6.149      162.530      114.036       68.890    26415.938    13004.277     4745.838        7.291        2.208      318.813       82.548        0.067      336.829        8.389      860.882
02/09/2014  03:26:00     -248.056     -112.691        7.904      145.553      142.525       62.149    21185.756    20313.303     3862.453        5.982        2.268      272.454       71.041        0.068      336.866        8.452      860.864
02/09/2014  03:27:00     -259.593     -144.801      -13.856      122.407       99.213       53.129    14983.492     9843.275     2822.726        5.809        1.382      297.247       49.276        0.027      336.793        8.328      860.937
02/09/2014  03:28:00     -279.216     -189.102        1.842      187.314      112.356       72.216    35086.622    12623.791     5215.153        8.331        2.646      337.225       69.032        0.042      336.762        8.279      860.915
02/09/2014  03:29:00     -287.466      -26.085        4.445      120.582      103.746       68.187    14539.965    10763.144     4649.411        5.664        1.498      288.647       70.632        0.060      336.770        8.292      860.960
02/09/2014  03:30:00     -172.651      -83.483       -5.089       87.443       91.049       50.300     7646.292     8289.962     2530.084        2.763        0.923      191.775       37.838        0.039      336.794        8.331      860.939
02/09/2014  03:31:00     -228.998     -108.016      -16.808       57.587       73.408       40.150     3316.293     5388.739     1612.009        3.735        0.516      253.195       16.592        0.004      336.847        8.419      860.896
02/09/2014  03:32:00     -161.810     -178.121       -7.444       75.883       96.745       38.135     5758.193     9359.502     1454.276        3.727        0.829      240.644       46.633        0.038      336.828        8.390      860.943
02/09/2014  03:33:00     -241.472     -194.242      -10.756      106.554       90.155       61.202    11353.849     8127.996     3745.711        5.969        1.161      309.901       60.556        0.038      336.779        8.307      860.974
02/09/2014  03:34:00     -175.540     -129.150       11.033      131.670       83.679       56.732    17337.048     7002.136     3218.576        3.758        1.378      217.931       52.759        0.059      336.768        8.289      860.956
02/09/2014  03:35:00     -240.309      -71.217      -13.782      128.174       97.892       49.493    16428.698     9582.828     2449.582        4.573        1.423      250.640       54.492        0.047      336.753        8.263      860.866
02/09/2014  03:36:00     -196.992     -169.322      -19.720      130.925       86.272       48.669    17141.452     7442.796     2368.654        4.740        1.348      259.761       57.809        0.050      336.789        8.323      860.818
02/09/2014  03:37:00     -326.503     -137.015       -9.751      173.860      111.467       62.709    30227.232    12424.867     3932.464        8.602        2.329      354.087       66.120        0.035      336.732        8.228      860.900
02/09/2014  03:38:00     -364.910     -201.303      -16.290      211.770      173.014       96.836    44846.449    29933.730     9377.131       12.904        4.208      416.752       91.833        0.049      336.704        8.182      860.999
02/09/2014  03:39:00     -333.781     -140.186       -0.028      170.267      154.210       91.830    28990.851    23780.725     8432.825        9.612        3.060      362.025      100.711        0.077      336.666        8.119      861.018
02/09/2014  03:40:00     -177.644      -80.987       18.857      142.928      119.150       56.785    20428.280    14196.796     3224.510        3.815        1.892      195.234       71.540        0.134      336.633        8.064      860.973
02/09/2014  03:41:00     -256.735      -49.036       -3.810      109.069      103.141       55.277    11896.037    10637.968     3055.593        4.696        1.279      261.377       50.484        0.037      336.615        8.034      860.917
02/09/2014  03:42:00     -253.739     -125.409       -1.532      128.413      140.311       67.587    16489.860    19687.072     4568.056        6.042        2.037      283.039       57.021        0.041      336.675        8.134      860.956
02/09/2014  03:43:00     -235.111     -223.637      -31.073      111.122      111.254       66.154    12348.039    12377.436     4376.374        6.767        1.455      324.485       54.453        0.028      336.776        8.300      861.013
02/09/2014  03:44:00     -205.032     -118.193       -5.142      162.031       97.265       64.015    26254.122     9460.552     4097.953        4.792        1.991      236.660       49.694        0.044      336.731        8.227      860.979
02/09/2014  03:45:00     -236.863      -54.833       -8.520      123.445      114.405       59.463    15238.587    13088.477     3535.904        4.552        1.593      243.127       56.979        0.055      336.697        8.170      860.911
02/09/2014  03:46:00     -288.086     -160.003       -4.248      137.286      120.696       63.133    18847.512    14567.626     3985.762        7.300        1.870      329.537       75.704        0.053      336.810        8.359      860.890
02/09/2014  03:47:00     -177.342     -103.349       -0.517       92.913       80.705       50.139     8632.843     6513.268     2513.924        2.989        0.883      205.259       51.703        0.063      336.730        8.228      860.838
02/09/2014  03:48:00     -218.625     -178.574        7.038      118.495       98.496       63.134    14041.123     9701.467     3985.839        5.373        1.386      282.287       61.147        0.047      336.690        8.158      860.745
02/09/2014  03:49:00     -211.548     -149.559       -8.468       95.723      100.624       60.535     9162.858    10125.202     3664.523        4.507        1.148      259.077       56.103        0.047      336.696        8.168      860.697
02/09/2014  03:50:00     -280.973      -96.953        3.006       93.185       86.273       43.151     8683.359     7442.958     1862.022        5.317        0.899      297.230       43.426        0.021      336.666        8.119      860.725
02/09/2014  03:51:00     -250.489     -116.257      -10.755      124.051      144.104       59.563    15388.620    20765.871     3547.804        5.803        1.985      276.153       70.041        0.064      336.602        8.013      860.752
02/09/2014  03:52:00     -188.741      -52.960       -0.099       84.293       73.909       49.021     7105.317     5462.507     2403.083        2.670        0.749      196.030       47.430        0.059      336.597        8.004      860.711
02/09/2014  03:53:00     -212.244     -118.666       -1.518      151.764       83.514       59.743    23032.280     6974.650     3569.230        4.635        1.679      243.164       61.238        0.063      336.664        8.117      860.606
02/09/2014  03:54:00     -203.273     -147.122       -0.186       93.379      123.103       46.793     8719.642    15154.301     2189.622        4.451        1.303      250.928       46.857        0.035      336.735        8.234      860.591
02/09/2014  03:55:00     -258.388     -185.710      -12.147      144.023      117.636       58.121    20742.541    13838.337     3378.066        6.967        1.898      318.202       73.469        0.053      336.708        8.190      860.639
02/09/2014  03:56:00     -192.326      -77.209       10.859      108.715       75.473       48.675    11818.913     5696.179     2369.212        3.147        0.994      207.244       54.697        0.070      336.637        8.071      860.674
02/09/2014  03:57:00     -206.063      -67.484        9.210      143.155      129.015       55.568    20493.453    16644.963     3087.778        4.366        2.011      216.832       76.217        0.124      336.610        8.026      860.679
02/09/2014  03:58:00     -258.589     -149.416       -2.760      116.731      100.702       56.318    13626.077    10140.909     3171.755        5.806        1.347      298.653       62.633        0.044      336.592        7.995      860.656
02/09/2014  03:59:00     -226.155     -105.000      -12.653       80.985       86.490       43.056     6558.627     7480.501     1853.813        3.911        0.795      249.341       40.267        0.026      336.535        7.901      860.612
02/09/2014  04:00:00     -200.315      -89.921        0.834       89.937       96.535       45.043     8088.671     9319.054     2028.828        3.382        0.972      219.572       46.902        0.046      336.543        7.913      860.575
02/09/2014  04:01:00     -205.448      -91.694      -10.111       85.699       59.800       31.446     7344.273     3576.050      988.837        3.131        0.595      224.982       30.533        0.018      336.562        7.944      860.622
02/09/2014  04:02:00     -239.067     -122.752       -1.415      123.347      109.719       55.959    15214.421    12038.348     3131.429        5.130        1.519      268.739       45.813        0.029      336.563        7.947      860.669
02/09/2014  04:03:00     -238.804     -173.069        0.318      123.080      105.610       69.251    15148.747    11153.480     4795.741        5.903        1.555      294.924       65.948        0.050      336.591        7.995      860.689
02/09/2014  04:04:00     -261.141     -135.975      -27.269       98.195      108.501       52.987     9642.227    11772.366     2807.624        5.582        1.211      294.421       48.187        0.027      336.589        7.990      860.672
02/09/2014  04:05:00     -207.188      -59.778        6.511       93.946      121.619       52.976     8825.875    14791.061     2806.406        3.648        1.321      215.639       53.940        0.063      336.552        7.928      860.674
02/09/2014  04:06:00     -224.027      -99.482       -0.170      103.134       95.909       57.878    10636.652     9198.505     3349.845        4.163        1.159      245.122       57.691        0.055      336.528        7.888      860.689
02/09/2014  04:07:00     -201.024     -101.644      -16.407      108.921       79.317       51.243    11863.708     6291.208     2625.801        3.589        1.039      225.260       53.907        0.057      336.502        7.844      860.701
02/09/2014  04:08:00     -190.406      -49.572       -7.609       98.886       59.090       39.399     9778.488     3491.656     1552.250        2.679        0.741      196.753       43.705        0.049      336.452        7.760      860.708
02/09/2014  04:09:00     -258.084      -99.162       -7.468       82.892       72.718       41.901     6871.103     5287.950     1755.681        4.520        0.696      276.478       33.816        0.015      336.447        7.750      860.677
02/09/2014  04:10:00     -106.690      -50.958        1.085       63.902       55.068       37.568     4083.508     3032.539     1411.332        1.125        0.426      118.235       28.501        0.058      336.452        7.763      860.644
02/09/2014  04:11:00     -208.067      -53.713      -11.026      106.450       82.338       38.257    11331.693     6779.531     1463.572        3.293        0.979      214.888       49.127        0.052      336.508        7.855      860.648
02/09/2014  04:12:00     -140.291      -50.074        3.615       97.388       65.246       38.136     9484.352     4257.018     1454.341        1.870        0.760      148.960       40.923        0.075      336.497        7.837      860.635
02/09/2014  04:13:00      -65.521      -24.428       18.610       56.211       53.210       33.634     3159.699     2831.343     1131.261        0.618        0.356       69.927       33.954        0.236      336.527        7.889      860.635
02/09/2014  04:14:00      -75.342      -90.579       -1.099       64.295       44.478       24.478     4133.905     1978.326      599.155        1.030        0.336      117.818        7.007        0.004      336.530        7.895      860.662
02/09/2014  04:15:00      -39.254      -70.696        4.366       48.900       32.923       25.120     2391.256     1083.898      631.007        0.533        0.205       80.863       14.451        0.032      336.528        7.891      860.643
02/09/2014  04:16:00      -62.181      -48.369      -12.176       46.061       32.539       18.295     2121.629     1058.803      334.715        0.493        0.176       78.778       10.461        0.018      336.493        7.832      860.575
02/09/2014  04:17:00      -71.657      -22.268        4.459       36.539       39.122       28.966     1335.083     1530.503      839.022        0.468        0.185       75.037       26.709        0.127      336.474        7.798      860.487
02/09/2014  04:18:00      -96.049      -99.460        9.108       72.428       70.002       40.462     5245.754     4900.227     1637.194        1.549        0.589      138.267       45.111        0.106      336.488        7.823      860.487
02/09/2014  04:19:00     -225.852     -169.277       -5.617       81.250       73.566       46.312     6601.627     5411.992     2144.808        4.692        0.708      282.247       46.097        0.027      336.515        7.866      860.520
02/09/2014  04:20:00     -125.812      -89.265       -8.812       63.786       66.723       32.674     4068.611     4452.002     1067.563        1.673        0.479      154.263       35.313        0.052      336.497        7.839      860.508
02/09/2014  04:21:00     -102.693      -45.667        8.297       61.856       53.174       37.312     3826.106     2827.518     1392.196        1.037        0.402      112.389       33.843        0.091      336.438        7.738      860.494
02/09/2014  04:22:00     -188.714      -75.876       -9.846       63.295       45.196       28.807     4006.234     2042.671      829.868        2.417        0.344      203.396       27.428        0.018      336.400        7.673      860.513
02/09/2014  04:23:00     -116.025      -93.783       -0.196       57.572       65.305       34.479     3314.537     4264.712     1188.770        1.551        0.438      149.187       34.891        0.055      336.419        7.707      860.519
02/09/2014  04:24:00      -81.315     -151.830        0.886       54.490       39.207       22.736     2969.181     1537.171      516.906        1.734        0.251      172.234       21.013        0.015      336.434        7.732      860.502
02/09/2014  04:25:00      -38.607      -21.190        7.282       38.931       52.995       19.068     1515.600     2808.508      363.572        0.334        0.234       44.040       19.290        0.192      336.419        7.706      860.438
02/09/2014  04:26:00     -116.737      -15.517       -4.832       46.109       36.499       13.547     2126.016     1332.210      183.531        0.877        0.182      117.764       12.647        0.012      336.332        7.561      860.402
02/09/2014  04:27:00      -87.391      -35.441        4.208       34.963       37.742       17.153     1222.420     1424.471      294.229        0.593        0.147       94.304       13.340        0.020      336.353        7.597      860.426
02/09/2014  04:28:00     -113.236      -89.528        0.975       64.344       62.817       37.255     4140.110     3946.018     1387.938        1.515        0.474      144.352       36.670        0.065      336.362        7.610      860.420
02/09/2014  04:29:00     -118.391      -63.913       -4.411       56.174       45.766       23.529     3155.492     2094.529      553.595        1.196        0.290      134.541       23.221        0.030      336.321        7.544      860.388
02/09/2014  04:30:00      -87.572      -48.708       -8.764       42.995       38.816       20.985     1848.569     1506.666      440.353        0.696        0.190      100.207       18.071        0.033      336.340        7.577      860.334
02/09/2014  04:31:00      -47.986       -9.730       -2.110       18.200       21.803       15.382      331.238      475.377      236.599        0.172        0.052       48.962       11.215        0.052      336.350        7.592      860.258
02/09/2014  04:32:00      -33.822       14.994       -0.736       27.834       14.124       12.194      774.753      199.484      148.689        0.125        0.056       36.997       10.293        0.077      336.294        7.499      860.201
02/09/2014  04:33:00      -42.352        9.364       -2.708       21.771       13.913       10.253      473.978      193.577      105.119        0.133        0.039       43.375        7.140        0.027      336.275        7.468      860.167
02/09/2014  04:34:00      -73.329        9.554       -8.228       10.732       12.938        8.974      115.166      167.384       80.536        0.295        0.018       73.949        2.205        0.001      336.302        7.514      860.138
02/09/2014  04:35:00      -60.787       -9.481       -3.441       26.600       18.194       11.111      707.560      331.022      123.447        0.248        0.058       61.521       10.340        0.028      336.283        7.480      860.123
02/09/2014  04:36:00      -47.401      -43.839        3.801       37.702       20.994       17.444     1421.436      440.735      304.304        0.317        0.108       64.565       19.245        0.089      336.289        7.489      860.141
02/09/2014  04:37:00      -16.123      -22.040        6.857       18.399       15.990       17.185      338.515      255.695      295.328        0.084        0.044       27.308        9.646        0.125      336.290        7.491      860.149
02/09/2014  04:38:00      -11.768      -51.012        1.131       16.372       18.106       12.459      268.035      327.830      155.227        0.175        0.038       52.352        4.565        0.008      336.333        7.564      860.104
02/09/2014  04:39:00      -88.547      -31.426       -0.871       36.546       17.810       10.197     1335.624      317.209      103.975        0.529        0.088       93.959        8.509        0.008      336.311        7.526      860.089
02/09/2014  04:40:00      -95.411      -40.391      -12.516       39.334       32.050       23.174     1547.187     1027.200      537.042        0.700        0.156      103.609       18.990        0.034      336.299        7.507      860.061
02/09/2014  04:41:00     -119.292       -4.268       -8.122       21.390       19.000       13.595      457.539      361.006      184.818        0.766        0.050      119.368        8.583        0.005      336.269        7.457      860.002
02/09/2014  04:42:00     -122.421      -51.604        3.050       49.570       34.354       21.964     2457.191     1180.230      482.398        1.089        0.206      132.853       24.223        0.033      336.190        7.325      859.984
02/09/2014  04:43:00     -102.382      -60.978        4.545       52.877       37.162       23.588     2795.950     1381.010      556.411        0.948        0.237      119.166       25.005        0.044      336.218        7.373      859.978
02/09/2014  04:44:00      -99.829      -42.067       -0.108       37.274       21.273       20.400     1389.360      452.552      416.153        0.700        0.113      108.330       20.981        0.038      336.225        7.383      859.930
02/09/2014  04:45:00     -113.860      -53.342       -1.245       22.914       23.766       15.113      525.074      564.812      228.410        0.856        0.066      125.736       14.290        0.013      336.222        7.378      859.870
02/09/2014  04:46:00     -123.751      -16.805      -13.139       22.529       15.492       11.311      507.560      240.012      127.945        0.832        0.044      124.886       10.323        0.007      336.206        7.350      859.825
02/09/2014  04:47:00      -93.042      -24.488      -12.238       22.660       23.436       12.245      513.493      549.247      149.936        0.531        0.061       96.211        7.538        0.006      336.188        7.322      859.805
02/09/2014  04:48:00      -81.297      -40.858        0.801       23.367       29.988       14.904      546.007      899.269      222.115        0.497        0.083       90.986       14.666        0.026      336.206        7.351      859.820
02/09/2014  04:49:00      -63.322      -25.793        0.435       32.052       20.938       16.237     1027.347      438.410      263.627        0.320        0.086       68.374       16.886        0.061      336.191        7.327      859.828
02/09/2014  04:50:00      -26.003      -13.461        5.197       23.492       15.771       13.200      551.868      248.723      174.232        0.093        0.049       29.280       11.138        0.145      336.190        7.326      859.851
02/09/2014  04:51:00      -52.569        4.583        1.872       17.712       20.329       12.884      313.726      413.268      165.998        0.184        0.045       52.769       12.314        0.054      336.152        7.262      859.861
02/09/2014  04:52:00      -88.186       34.356       -4.099       54.551       22.876       15.261     2975.831      523.332      232.911        0.635        0.187       94.642       17.291        0.033      336.124        7.215      859.840
02/09/2014  04:53:00     -159.980       36.465       -8.198       47.553       35.226       18.519     2261.248     1240.858      342.965        1.542        0.192      164.084       21.453        0.017      336.042        7.076      859.853
02/09/2014  04:54:00     -162.033      -30.915       -5.328       58.101       56.109       27.799     3375.759     3148.186      772.792        1.727        0.365      164.956       27.294        0.027      336.004        7.013      859.963
02/09/2014  04:55:00     -179.407     -101.501       -3.690       73.062       53.440       39.924     5338.115     2855.880     1593.901        2.614        0.489      206.130       35.849        0.030      336.051        7.090      860.101
02/09/2014  04:56:00     -152.841      -78.190       -3.235       57.040       57.125       33.458     3253.514     3263.315     1119.448        1.856        0.382      171.680       24.382        0.020      336.044        7.079      860.202
02/09/2014  04:57:00      -97.889      -29.319        1.915       43.789       30.557       25.125     1917.460      933.712      631.286        0.696        0.174      102.186       19.286        0.036      336.044        7.082      860.200
02/09/2014  04:58:00     -122.164        2.223       -7.740       55.746       31.815       28.471     3107.657     1012.201      810.622        0.996        0.247      122.184       32.092        0.069      336.065        7.116      860.128
02/09/2014  04:59:00     -113.569       33.884      -16.589       30.800       26.939       19.457      948.665      725.688      378.584        0.819        0.103      118.516       17.884        0.023      336.042        7.078      860.052
02/09/2014  05:00:00     -109.811      -37.306      -11.436       34.085       32.259       17.408     1161.763     1040.632      303.026        0.804        0.125      115.975       19.492        0.028      336.068        7.122      860.081
02/09/2014  05:01:00     -201.172     -105.254       -4.801       44.515       37.519       25.966     1981.547     1407.691      674.210        2.782        0.203      227.044       21.568        0.009      336.106        7.182      860.176
02/09/2014  05:02:00     -182.056      -71.089       -2.877       78.421       34.414       31.208     6149.861     1184.347      973.913        2.326        0.415      195.444       38.528        0.039      336.098        7.169      860.262
02/09/2014  05:03:00     -175.799      -58.791        0.874       71.601       67.460       31.110     5126.715     4550.871      967.849        2.250        0.532      185.369       34.118        0.034      336.027        7.050      860.293
02/09/2014  05:04:00     -146.843       16.267       -9.865       53.627       37.865       28.374     2875.848     1433.728      805.098        1.352        0.256      147.741       20.855        0.020      336.033        7.064      860.235
02/09/2014  05:05:00      -48.258       18.577       -2.893       34.635       28.692       16.219     1199.580      823.218      263.047        0.248        0.114       51.710       16.616        0.103      336.093        7.165      860.104
02/09/2014  05:06:00      -45.712       86.806       -7.151       60.636       50.682       33.177     3676.671     2568.634     1100.738        0.851        0.367       98.107       32.957        0.113      336.249        7.423      860.063
02/09/2014  05:07:00      -80.105       81.202      -11.058       38.472       40.811       22.976     1480.087     1665.539      527.911        0.840        0.184      114.064       23.930        0.044      336.237        7.403      860.071
02/09/2014  05:08:00      -96.002        6.751       -9.686       30.141       35.639       18.514      908.508     1270.132      342.785        0.594        0.126       96.239       15.563        0.026      336.193        7.330      860.104
02/09/2014  05:09:00     -101.683      -20.801       -7.256       36.277       26.026       17.116     1316.027      677.371      292.958        0.656        0.114      103.788       17.623        0.029      336.137        7.236      860.173
02/09/2014  05:10:00     -185.606      -38.430       -1.687       57.863       62.313       32.602     3348.156     3882.941     1062.875        2.211        0.415      189.543       29.997        0.025      336.126        7.216      860.172
02/09/2014  05:11:00     -144.040      -40.350       -6.951       49.681       31.812       21.074     2468.246     1012.028      444.114        1.317        0.196      149.585       19.136        0.016      336.317        7.538      860.147
02/09/2014  05:12:00      -87.899      -29.235       -2.572       31.542       28.625       22.203      994.869      819.368      492.972        0.545        0.115       92.633       19.027        0.042      336.371        7.627      860.146
02/09/2014  05:13:00     -134.468       -8.088      -12.810       43.862       28.337       17.304     1923.859      802.991      299.421        1.067        0.151      134.711       20.608        0.023      336.216        7.368      860.133
02/09/2014  05:14:00     -124.349       26.141       -9.627       35.675       28.336       19.451     1272.735      802.916      378.346        0.935        0.123      127.067       16.972        0.018      336.210        7.360      860.094
02/09/2014  05:15:00      -95.111       -6.334        1.718       44.376       43.079       25.409     1969.206     1855.828      645.612        0.678        0.224       95.322       31.205        0.107      336.181        7.310      860.121
02/09/2014  05:16:00      -26.560      -36.426        1.385       22.002       31.001       15.472      484.066      961.059      239.384        0.186        0.084       45.081       15.431        0.117      336.171        7.292      860.153
02/09/2014  05:17:00      -30.988      -45.059        3.378       26.866       25.034       14.428      721.766      626.704      208.169        0.228        0.078       54.686       10.149        0.034      336.148        7.255      860.193
02/09/2014  05:18:00      -75.077      -40.047      -10.746       38.249       20.885       18.863     1462.973      436.181      355.819        0.480        0.113       85.090       18.374        0.047      336.123        7.213      860.239
02/09/2014  05:19:00      -61.035        8.109        1.222       20.827       28.613       16.500      433.746      818.721      272.260        0.266        0.076       61.571       12.593        0.042      336.124        7.215      860.250
02/09/2014  05:20:00      -69.937       45.946        0.095       48.487       19.366       19.296     2351.036      375.049      372.349        0.505        0.155       83.680       19.624        0.055      336.130        7.224      860.207
02/09/2014  05:21:00      -20.665      101.753       -9.585       35.725       50.743       21.806     1276.275     2574.809      475.512        0.760        0.216      103.830       25.088        0.058      336.227        7.388      860.156
02/09/2014  05:22:00      -17.136      191.281      -28.913       38.449       37.444       20.055     1478.297     1402.090      402.204        2.050        0.164      192.047       14.500        0.006      336.196        7.334      860.132
02/09/2014  05:23:00       20.631      139.121      -22.350       29.767       61.432       25.402      886.063     3773.900      645.269        1.279        0.265      140.643       32.662        0.054      336.125        7.218      860.088
02/09/2014  05:24:00       30.629       29.569       -0.255       29.192       31.976       25.095      852.151     1022.473      629.765        0.216        0.125       42.572       14.144        0.110      336.054        7.097      860.055
02/09/2014  05:25:00       16.814        1.446        0.770       36.151       19.569       12.190     1306.887      382.939      148.597        0.106        0.092       16.876        7.266        0.185      336.017        7.037      860.112
02/09/2014  05:26:00      -13.761       12.978        0.766       17.700       22.313       15.278      313.296      497.880      233.414        0.070        0.052       18.915        9.508        0.253      336.035        7.066      860.163
02/09/2014  05:27:00      -35.240       -2.281       -1.304       18.561       22.081        8.809      344.514      487.571       77.602        0.108        0.045       35.314       10.382        0.086      336.085        7.148      860.174
02/09/2014  05:28:00       14.801       45.943        5.879       26.013       17.223       13.103      676.677      296.630      171.696        0.175        0.057       48.269       11.892        0.061      336.145        7.250      860.146
02/09/2014  05:29:00       59.075       73.653       -5.257       32.865       26.639       20.450     1080.115      709.649      418.186        0.557        0.110       94.418       14.451        0.023      336.138        7.240      860.088
02/09/2014  05:30:00       74.267       62.115        3.681       43.752       29.849       26.765     1914.219      890.947      716.343        0.645        0.176       96.819       17.167        0.031      336.080        7.141      860.007
02/09/2014  05:31:00       37.739       62.340       -0.492       34.625       42.168       28.434     1198.922     1778.165      808.490        0.455        0.189       72.873       21.433        0.087      336.094        7.165      860.024
02/09/2014  05:32:00       41.307       52.266        7.163       43.000       41.947       37.357     1849.019     1759.581     1395.529        0.475        0.250       66.618       22.639        0.115      336.085        7.150      860.066
02/09/2014  05:33:00       61.469       55.164        8.835       44.161       30.990       29.438     1950.228      960.411      866.579        0.534        0.189       82.592       21.092        0.065      336.059        7.105      860.093
02/09/2014  05:34:00       36.946       63.914        8.769       40.638       44.577       29.909     1651.448     1987.106      894.568        0.503        0.227       73.824       24.213        0.108      336.103        7.180      860.114
02/09/2014  05:35:00       41.565       57.429        0.246       44.454       42.712       35.113     1976.171     1824.293     1232.939        0.503        0.252       70.892       27.332        0.149      336.087        7.153      860.124
02/09/2014  05:36:00       29.648      107.332       -8.736       47.529       63.142       38.347     2258.983     3986.915     1470.494        1.009        0.386      111.351       45.617        0.168      336.056        7.101      860.129
02/09/2014  05:37:00       27.329       70.308        5.093       47.782       58.433       42.847     2283.124     3414.394     1835.832        0.662        0.377       75.433       35.283        0.219      335.984        6.981      860.120
02/09/2014  05:38:00       28.900       87.925       -5.322       51.805       63.419       43.230     2683.800     4021.945     1868.859        0.858        0.429       92.553       36.637        0.157      336.005        7.015      860.129
02/09/2014  05:39:00       23.774      105.418        0.555       33.928       55.112       36.596     1151.086     3037.301     1339.256        0.860        0.276      108.066       32.349        0.090      335.965        6.949      860.134
02/09/2014  05:40:00       63.092       71.978       -1.271       30.845       33.640       30.798      951.389     1131.647      948.542        0.610        0.152       95.715       25.929        0.073      335.912        6.861      860.162
02/09/2014  05:41:00       53.573       86.951       -0.912       35.005       44.478       30.256     1225.348     1978.315      915.440        0.727        0.206      102.130       28.351        0.077      335.968        6.955      860.179
02/09/2014  05:42:00       40.123       40.791        5.265       31.545       35.692       26.323      995.066     1273.919      692.918        0.313        0.148       57.217       16.324        0.081      336.132        7.229      860.206
02/09/2014  05:43:00       41.364       28.437       24.722       31.232       24.726       24.867      975.421      611.360      618.363        0.267        0.110       50.196       18.050        0.129      336.111        7.192      860.218
02/09/2014  05:44:00       81.281       60.786       10.885       32.533       20.859       21.950     1058.399      435.110      481.803        0.620        0.099      101.496       14.659        0.021      336.003        7.013      860.211
02/09/2014  05:45:00       61.710       61.138        3.705       25.418       27.003       23.619      646.057      729.174      557.869        0.475        0.097       86.867       18.363        0.045      336.027        7.053      860.206
02/09/2014  05:46:00       28.927       74.470       -6.824       30.639       32.379       23.357      938.753     1048.402      545.560        0.448        0.127       79.891       21.790        0.074      335.997        7.002      860.220
02/09/2014  05:47:00       48.404      129.668      -14.508       36.294       44.295       39.372     1317.236     1962.062     1550.172        1.210        0.241      138.408       34.460        0.062      335.953        6.929      860.273
02/09/2014  05:48:00      109.659       70.030       20.846       65.044       41.256       37.005     4230.717     1702.059     1369.373        1.233        0.365      130.113       22.313        0.029      335.930        6.890      860.304
02/09/2014  05:49:00      190.888      103.321       34.576       77.706       57.814       46.427     6038.224     3342.452     2155.464        2.992        0.577      217.056       37.035        0.029      335.871        6.792      860.290
02/09/2014  05:50:00      290.274      151.138       26.778       72.529       62.944       51.061     5260.393     3961.954     2607.218        5.982        0.591      327.264       36.439        0.012      335.924        6.877      860.291
02/09/2014  05:51:00      263.161      139.189       26.413       61.306       62.667       54.163     3758.403     3927.215     2933.657        4.997        0.531      297.703       43.774        0.022      336.011        7.022      860.304
02/09/2014  05:52:00      261.031      165.649       40.261       60.890       67.287       49.261     3707.534     4527.561     2426.684        5.393        0.533      309.155       23.611        0.006      336.002        7.007      860.309
02/09/2014  05:53:00      131.479       84.741       35.739       80.644       65.974       60.076     6503.445     4352.571     3609.125        2.010        0.723      156.422       27.579        0.031      335.913        6.862      860.282
02/09/2014  05:54:00      130.734       73.000       14.600       93.390       66.978       50.711     8721.605     4485.993     2571.648        1.920        0.789      149.734       49.275        0.108      335.927        6.885      860.284
02/09/2014  05:55:00      177.815      136.068       19.554       62.151       59.370       45.316     3862.777     3524.740     2053.498        2.998        0.472      223.903       26.086        0.014      335.960        6.938      860.287
02/09/2014  05:56:00      143.449       98.131       24.212       64.125       44.112       40.568     4112.043     1945.829     1645.725        1.925        0.385      173.803       31.372        0.033      335.948        6.920      860.297
02/09/2014  05:57:00      111.222       89.162        7.716       65.026       52.238       50.028     4228.390     2728.853     2502.773        1.492        0.473      142.550       36.504        0.066      335.950        6.924      860.364
02/09/2014  05:58:00      145.985      101.615       20.481       54.779       40.984       37.892     3000.770     1679.696     1435.838        1.909        0.306      177.868       22.891        0.017      335.993        6.994      860.431
02/09/2014  05:59:00      130.007       56.699       26.841       67.755       49.738       35.329     4590.737     2473.862     1248.170        1.457        0.416      141.833       14.387        0.010      336.002        7.010      860.465
02/09/2014  06:00:00      179.909       66.207       12.892       95.482       61.767       48.970     9116.823     3815.134     2398.081        2.612        0.767      191.704       19.948        0.011      336.010        7.021      860.455
02/09/2014  06:01:00      206.633      177.565       79.838       68.245       43.459       56.821     4657.436     1888.657     3228.676        4.519        0.489      272.445       27.699        0.010      335.999        7.002      860.433
02/09/2014  06:02:00      196.190      159.947       83.195       98.911       77.507       90.026     9783.397     6007.305     8104.738        4.744        1.195      253.127       78.494        0.096      335.995        6.996      860.423
02/09/2014  06:03:00      160.196      128.486      138.742      105.937       81.476       72.374    11222.728     6638.337     5238.022        4.226        1.155      205.357       66.763        0.106      336.059        7.103      860.414
02/09/2014  06:04:00      147.062       87.401       84.443       91.198       92.570       58.137     8317.049     8569.223     3379.855        2.833        1.013      171.073       53.722        0.099      336.030        7.056      860.422
02/09/2014  06:05:00      125.582       62.281       28.102       58.691       51.446       33.933     3444.612     2646.718     1151.427        1.384        0.362      140.178       35.062        0.063      336.024        7.047      860.464
02/09/2014  06:06:00       67.212       34.810       51.171       41.117       34.692       32.569     1690.640     1203.510     1060.770        0.615        0.198       75.692       16.103        0.045      336.035        7.066      860.507
02/09/2014  06:07:00       57.948       75.810       47.218       46.356       30.413       41.577     2148.872      924.937     1728.611        0.807        0.240       95.421       31.632        0.110      336.051        7.094      860.554
02/09/2014  06:08:00      142.499       73.741       24.394       82.617       56.232       44.353     6825.498     3162.004     1967.195        1.914        0.598      160.449       30.798        0.037      336.063        7.112      860.595
02/09/2014  06:09:00      203.629      113.985       47.145       64.513       68.863       56.566     4161.938     4742.101     3199.742        3.439        0.605      233.361       34.744        0.022      336.166        7.281      860.578
02/09/2014  06:10:00      143.761      104.028       71.064      123.566       78.842       68.887    15268.516     6216.040     4745.356        3.138        1.311      177.452       65.010        0.134      336.033        7.061      860.537
02/09/2014  06:11:00      187.400       89.544       39.204      106.588       73.424       56.940    11361.017     5391.106     3242.147        3.233        1.000      207.694       51.347        0.061      336.023        7.044      860.551
02/09/2014  06:12:00      259.154      124.362       45.037      104.529       89.420       64.491    10926.370     7996.020     4159.126        5.386        1.154      287.449       49.637        0.030      336.114        7.196      860.603
02/09/2014  06:13:00      203.030      112.953       20.190      123.976       87.328       60.323    15370.092     7626.162     3638.910        4.051        1.332      232.335       33.645        0.021      336.091        7.158      860.578
02/09/2014  06:14:00      260.290      146.272       44.926       95.326       61.962       62.407     9087.058     3839.304     3894.678        5.399        0.841      298.573       55.581        0.035      336.073        7.126      860.541
02/09/2014  06:15:00      247.373      157.293       25.096       95.188       70.692       68.358     9060.718     4997.319     4672.878        5.264        0.937      293.146       52.028        0.031      336.003        7.009      860.522
02/09/2014  06:16:00      185.249      118.518       31.323       95.020       69.862       54.652     9028.767     4880.695     2986.874        3.312        0.845      219.917       35.777        0.026      336.037        7.068      860.560
02/09/2014  06:17:00       39.233      190.431       -7.872       59.407       88.971       45.321     3529.219     7915.806     2053.997        2.568        0.675      194.431       32.969        0.029      336.049        7.088      860.614
02/09/2014  06:18:00       64.705       47.435       18.978       48.065       44.538       34.270     2310.219     1983.655     1174.425        0.613        0.273       80.230       25.962        0.105      336.064        7.115      860.637
02/09/2014  06:19:00       40.840       58.105        2.001       30.237       26.204       31.194      914.291      686.650      973.058        0.381        0.129       71.022       18.481        0.068      336.172        7.297      860.627
02/09/2014  06:20:00       64.867       39.090       12.892       42.716       27.537       25.978     1824.671      758.272      674.844        0.458        0.163       75.735       18.073        0.057      336.180        7.309      860.617
02/09/2014  06:21:00       70.295       57.213       14.025       51.528       48.375       29.191     2655.143     2340.130      852.103        0.713        0.292       90.635       29.000        0.102      336.132        7.227      860.623
02/09/2014  06:22:00       27.578      118.264      -11.630       39.064       45.868       30.965     1526.004     2103.917      958.827        0.973        0.229      121.437       28.543        0.055      336.145        7.249      860.638
02/09/2014  06:23:00      -19.593       26.869       -1.354       28.930       56.509       24.148      836.932     3193.319      583.129        0.286        0.231       33.254       17.952        0.291      336.227        7.388      860.685
02/09/2014  06:24:00      -25.570      -21.909      -10.572       23.540       25.123       15.235      554.120      631.187      232.104        0.133        0.071       33.672        7.683        0.052      335.949        6.922      860.740
02/09/2014  06:25:00      -82.052       46.898      -14.962       37.883       44.892       20.234     1435.098     2015.309      409.422        0.651        0.193       94.509       17.603        0.035      336.099        7.175      860.764
02/09/2014  06:26:00      -40.658       50.475       -6.031       48.031       22.382       20.462     2307.020      500.935      418.679        0.373        0.161       64.813       14.339        0.049      336.351        7.594      860.749
02/09/2014  06:27:00      -40.249       74.393       -9.647       50.251       34.009       22.925     2525.129     1156.644      525.578        0.573        0.210       84.583       16.176        0.037      336.467        7.788      860.722
02/09/2014  06:28:00      -88.024       83.527      -23.281       30.291       38.669       21.140      917.522     1495.279      446.906        0.906        0.143      121.346       15.264        0.016      336.237        7.404      860.738
02/09/2014  06:29:00       14.632      130.517      -15.904       38.182       46.889       31.627     1457.865     2198.546     1000.259        1.108        0.233      131.335       33.067        0.063      336.298        7.505      860.733
02/09/2014  06:30:00       41.837       77.314       -5.198       40.442       34.927       17.423     1635.556     1219.872      303.571        0.546        0.158       87.908       19.100        0.047      336.198        7.339      860.719
02/09/2014  06:31:00       84.183       64.673        4.922       45.536       29.795       26.098     2073.556      887.750      681.083        0.747        0.182      106.158       18.103        0.029      336.202        7.346      860.695
02/09/2014  06:32:00       71.789       69.511        5.041       46.727       42.885       34.767     2183.373     1839.162     1208.777        0.762        0.262       99.928       23.388        0.055      336.163        7.278      860.709
02/09/2014  06:33:00       33.871       95.409      -10.902       33.255       91.458       28.840     1105.883     8364.576      831.732        1.033        0.515      101.243       45.347        0.201      336.179        7.305      860.741
02/09/2014  06:34:00      -60.559      137.511      -19.111       51.256       64.556       29.236     2627.199     4167.416      854.770        1.529        0.382      150.255       32.645        0.047      336.431        7.726      860.775
02/09/2014  06:35:00       30.616      107.075      -11.473       44.583       57.565       28.655     1987.619     3313.778      821.100        0.933        0.306      111.366       30.943        0.077      336.359        7.607      860.775
02/09/2014  06:36:00       65.218      181.032      -18.818       49.455       64.459       47.102     2445.841     4154.983     2218.555        2.310        0.441      192.421       42.319        0.048      336.330        7.556      860.785
02/09/2014  06:37:00       50.557      102.996       -7.988       30.911       36.447       29.451      955.521     1328.398      867.390        0.819        0.158      114.735       25.617        0.050      336.275        7.468      860.811
02/09/2014  06:38:00       46.368       33.161        3.430       37.570       43.691       19.304     1411.496     1908.898      372.646        0.348        0.185       57.005       16.607        0.085      336.232        7.394      860.834
02/09/2014  06:39:00      -20.110       35.812       -8.628       25.841       22.150       12.863      667.772      490.604      165.452        0.154        0.066       41.072        9.150        0.050      336.337        7.571      860.886
02/09/2014  06:40:00       -1.116       69.252      -10.384       28.064       35.492       14.591      787.593     1259.683      212.898        0.358        0.113       69.261       10.477        0.023      336.338        7.571      860.912
02/09/2014  06:41:00       41.930       28.138       -6.512       16.772       19.540       21.187      281.302      381.827      448.878        0.185        0.056       50.496       12.979        0.066      336.244        7.416      860.931
02/09/2014  06:42:00        7.881       97.992      -15.693       28.302       45.035       15.966      800.987     2028.185      254.906        0.650        0.154       98.309       21.794        0.049      336.293        7.496      860.952
02/09/2014  06:43:00       56.547       98.073      -15.939       32.331       38.763       22.163     1045.280     1502.566      491.190        0.805        0.152      113.207       20.961        0.034      336.262        7.444      860.973
02/09/2014  06:44:00       27.898      131.644      -24.435       32.908       61.723       25.613     1082.968     3809.716      656.015        1.213        0.277      134.568       17.095        0.016      336.251        7.426      860.986
02/09/2014  06:45:00       -8.051      155.997      -22.049       36.881       52.469       23.628     1360.231     2753.046      558.270        1.478        0.234      156.205       19.234        0.015      336.235        7.398      861.029
02/09/2014  06:46:00      -15.881      119.342      -13.299       41.371       36.782       22.179     1711.583     1352.927      491.928        0.911        0.178      120.394       22.271        0.034      336.389        7.658      861.059
02/09/2014  06:47:00       -3.301      166.140      -26.503       36.970       61.299       24.187     1366.756     3757.542      585.027        1.701        0.285      166.172       27.888        0.028      336.265        7.449      861.093
02/09/2014  06:48:00       -7.561      129.202      -19.071       49.701       62.905       22.924     2470.170     3956.994      525.531        1.203        0.348      129.423       20.247        0.024      336.326        7.552      861.128
02/09/2014  06:49:00       12.328      118.574      -11.460       42.174       44.299       30.965     1778.621     1962.358      958.822        0.952        0.235      119.213       30.057        0.064      336.190        7.326      861.163
02/09/2014  06:50:00        9.458      126.475      -18.635       50.574       32.682       21.404     2557.680     1068.129      458.127        1.026        0.204      126.828       22.596        0.032      336.165        7.284      861.198
02/09/2014  06:51:00      -36.752      118.663      -21.352       52.095       35.598       21.347     2713.899     1267.248      455.695        1.016        0.222      124.224       16.954        0.019      336.216        7.370      861.257
02/09/2014  06:52:00      -21.542      111.972      -10.056       25.751       48.983       22.294      663.136     2399.355      497.016        0.833        0.178      114.025       13.517        0.014      336.282        7.479      861.295
02/09/2014  06:53:00      -56.686      127.361      -19.820       48.342       61.585       23.523     2336.960     3792.710      553.328        1.325        0.334      139.406       19.282        0.019      336.257        7.436      861.309
02/09/2014  06:54:00      -32.420       70.720       -9.887       36.557       34.639       20.274     1336.434     1199.865      411.021        0.455        0.147       77.797        8.252        0.011      336.300        7.509      861.329
02/09/2014  06:55:00        2.957      164.393      -19.257       27.149       39.461       23.874      737.082     1557.150      569.949        1.513        0.143      164.420       18.343        0.012      336.220        7.375      861.345
02/09/2014  06:56:00        6.163      125.537      -25.473       35.880       35.663       18.672     1287.381     1271.825      348.631        0.968        0.145      125.688       17.426        0.019      336.173        7.297      861.321
02/09/2014  06:57:00       35.740       89.131        5.475       36.784       54.757       38.144     1353.036     2998.348     1455.002        0.753        0.290       96.030       37.642        0.154      336.108        7.187      861.294
02/09/2014  06:58:00      -22.370      183.754      -29.748       52.538       55.223       27.094     2760.217     3049.562      734.058        2.085        0.327      185.110       21.010        0.013      336.122        7.209      861.267
02/09/2014  06:59:00      -40.544      240.649      -28.279       56.245       46.882       29.687     3163.502     2197.936      881.338        3.330        0.312      244.040       22.198        0.008      336.150        7.255      861.249
02/09/2014  07:00:00       -7.343      177.968      -26.005       64.087       71.597       36.880     4107.103     5126.117     1360.159        2.150        0.530      178.120       39.427        0.049      336.079        7.138      861.228
02/09/2014  07:01:00      -65.158      146.445      -14.882       62.446       98.588       52.521     3899.551     9719.684     2758.477        2.114        0.819      160.287       44.607        0.077      336.139        7.238      861.253
02/09/2014  07:02:00      -85.378      209.888      -23.914       81.352      101.969       52.975     6618.181    10397.589     2806.349        3.586        0.991      226.589       57.322        0.064      336.162        7.276      861.248
02/09/2014  07:03:00     -149.697      216.858      -26.163       67.452      117.092       57.844     4549.769    13710.578     3345.914        4.586        1.080      263.508       42.962        0.027      336.120        7.205      861.261
02/09/2014  07:04:00     -213.895      244.108      -37.909       97.118      112.175       60.120     9431.833    12583.249     3614.458        6.620        1.281      324.560       56.453        0.030      336.088        7.151      861.229
02/09/2014  07:05:00     -172.112      235.672      -41.918       80.690       95.144       44.324     6510.855     9052.446     1964.588        5.222        0.876      291.829       45.255        0.024      336.053        7.093      861.249
02/09/2014  07:06:00     -189.750      242.779      -38.338       71.879       96.823       50.458     5166.543     9374.639     2546.036        5.675        0.854      308.134       44.225        0.021      336.053        7.092      861.260
02/09/2014  07:07:00     -186.780      221.109      -39.681       75.984      122.931       45.045     5773.562    15111.984     2029.011        5.413        1.146      289.440       46.169        0.025      336.011        7.024      861.253
02/09/2014  07:08:00     -129.504      219.418      -31.524       67.171      116.885       45.163     4511.911    13662.085     2039.674        4.306        1.011      254.785       40.796        0.026      335.989        6.986      861.263
02/09/2014  07:09:00     -174.190      228.806      -30.276       85.461      134.317       52.441     7303.574    18041.151     2750.096        5.585        1.405      287.566       54.104        0.035      335.983        6.977      861.267
02/09/2014  07:10:00     -101.599      105.916      -15.175       60.082      100.154       39.076     3609.788    10030.745     1526.914        1.847        0.758      146.767       37.681        0.066      335.949        6.920      861.292
02/09/2014  07:11:00     -131.591      126.639      -26.360       70.914       85.315       41.621     5028.798     7278.700     1732.278        2.404        0.702      182.630       20.707        0.013      335.963        6.943      861.325
02/09/2014  07:12:00      -77.422      136.622       -4.317       56.915      112.684       40.699     3239.296    12697.589     1656.413        2.113        0.880      157.034       35.858        0.052      335.966        6.950      861.318
02/09/2014  07:13:00      -99.445       85.603      -10.902       61.388       69.991       43.871     3768.489     4898.744     1924.678        1.396        0.530      131.214       29.741        0.051      335.968        6.953      861.310
02/09/2014  07:14:00      -63.304       49.412       -2.590       33.138       38.643       23.481     1098.153     1493.254      551.375        0.480        0.157       80.305       20.014        0.062      335.982        6.977      861.324
02/09/2014  07:15:00      -97.194      156.323      -27.885       48.175       74.035       32.309     2320.847     5481.223     1043.862        2.175        0.442      184.075       21.007        0.013      335.945        6.914      861.335
02/09/2014  07:16:00     -100.884      146.594      -21.294       51.194       49.886       35.214     2620.782     2488.618     1240.031        1.923        0.317      177.953       29.076        0.027      335.943        6.912      861.321
02/09/2014  07:17:00     -115.746       71.542      -12.624       57.527       49.208       30.155     3309.341     2421.442      909.319        1.266        0.332      136.071       31.992        0.055      335.898        6.836      861.316
02/09/2014  07:18:00     -118.247      106.641      -25.589       60.310       52.953       26.794     3637.343     2804.026      717.899        1.658        0.358      159.232       29.905        0.035      335.903        6.845      861.297
02/09/2014  07:19:00      -85.994      119.258      -12.778       61.882       57.499       36.465     3829.330     3306.128     1329.719        1.512        0.423      147.029       30.392        0.043      335.956        6.933      861.278
02/09/2014  07:20:00      -72.349      181.513      -15.196       53.841       76.029       37.805     2898.854     5780.378     1429.220        2.426        0.505      195.401       34.334        0.031      335.982        6.975      861.283
02/09/2014  07:21:00      -42.466      192.583      -14.961       46.671       96.291       38.627     2178.137     9272.010     1492.051        2.603        0.647      197.210       40.302        0.042      335.932        6.891      861.314
02/09/2014  07:22:00      -40.237      216.328      -20.869       43.501       82.931       33.839     1892.343     6877.553     1145.083        2.938        0.496      220.038       32.372        0.022      335.891        6.824      861.338
02/09/2014  07:23:00      -69.569      140.069      -18.153       53.364       61.371       33.346     2847.668     3766.418     1111.933        1.626        0.386      156.394       26.378        0.028      335.961        6.941      861.358
02/09/2014  07:24:00      -45.277       93.937        2.966       53.157       54.561       30.770     2825.663     2976.873      946.788        0.881        0.337      104.280       32.583        0.098      335.984        6.982      861.350
02/09/2014  07:25:00      -19.736      100.918       -5.549       32.440       63.068       29.384     1052.385     3977.515      863.444        0.825        0.295      102.829       35.484        0.119      335.923        6.881      861.344
02/09/2014  07:26:00      -38.699       85.363       -6.510       40.215       64.203       30.572     1617.241     4122.062      934.627        0.775        0.334       93.726       22.595        0.058      336.055        7.101      861.379
02/09/2014  07:27:00      -47.543      158.956      -11.516       37.055       76.009       40.421     1373.101     5777.391     1633.833        1.822        0.439      165.914       49.233        0.088      335.986        6.982      861.406
02/09/2014  07:28:00      -92.176       95.164      -13.482       47.147       51.836       32.648     2222.846     2686.950     1065.924        1.185        0.299      132.487       28.640        0.047      336.017        7.035      861.430
02/09/2014  07:29:00      -52.496       49.046       -4.751       30.721       20.541       17.857      943.765      421.928      318.881        0.343        0.084       71.842        6.652        0.009      336.033        7.063      861.451
02/09/2014  07:30:00      -50.269       61.383       -3.286       33.762       34.470       24.313     1139.881     1188.166      591.112        0.461        0.146       79.340       15.106        0.036      335.996        7.000      861.473
02/09/2014  07:31:00      -35.439       88.507       -7.478       51.285       52.647       30.618     2630.151     2771.702      937.453        0.774        0.317       95.338       29.533        0.096      336.073        7.129      861.489
02/09/2014  07:32:00      -30.195      110.813        3.031       36.194       70.417       38.523     1309.985     4958.615     1484.056        1.047        0.388      114.853       41.359        0.130      336.012        7.027      861.491
02/09/2014  07:33:00      -56.673       55.269       -3.386       35.711       46.692       30.991     1275.258     2180.146      960.430        0.535        0.221       79.162       21.031        0.071      335.971        6.960      861.503
02/09/2014  07:34:00      -70.239       29.937      -15.619       37.157       36.748       23.125     1380.668     1350.386      534.760        0.467        0.163       76.352       24.094        0.100      335.872        6.795      861.494
02/09/2014  07:35:00      -67.201      -13.429       -9.510       28.386       29.447       17.242      805.767      867.099      297.291        0.338        0.099       68.530       12.136        0.031      335.858        6.772      861.472
02/09/2014  07:36:00      -56.108       -7.193      -13.014       27.096       17.211       21.742      734.184      296.204      472.720        0.244        0.075       56.567       20.450        0.131      335.829        6.721      861.472
02/09/2014  07:37:00       -5.440       -1.357        0.200       16.824       13.393       13.599      283.047      179.377      184.935        0.034        0.032        5.607       11.235        4.015      335.835        6.733      861.476
02/09/2014  07:38:00      -48.365      -23.753      -10.865       24.339       18.867       12.534      592.390      355.980      157.109        0.206        0.055       53.883        5.696        0.011      335.819        6.707      861.496
02/09/2014  07:39:00      -33.551      -51.645        4.127       54.392       27.718       22.090     2958.499      768.277      487.952        0.401        0.211       61.587       17.936        0.085      335.839        6.739      861.519
02/09/2014  07:40:00      -54.646      -51.724       12.349       65.672       33.395       25.264     4312.758     1115.234      638.253        0.594        0.303       75.244       32.620        0.188      335.775        6.632      861.562
02/09/2014  07:41:00     -140.915      -74.636       -7.808       42.660       27.724       15.673     1819.840      768.606      245.657        1.416        0.142      159.461       10.411        0.004      335.660        6.442      861.617
02/09/2014  07:42:00      -53.546      -38.925        2.780       31.413       25.637       15.458      986.801      657.268      238.960        0.314        0.094       66.199       11.595        0.031      335.722        6.545      861.643
02/09/2014  07:43:00      -69.310      -51.882       -8.497       25.346       27.434       16.659      642.422      752.650      277.522        0.462        0.084       86.577       11.113        0.016      335.730        6.559      861.665
02/09/2014  07:44:00      -40.400      -33.705       -7.705       21.333       19.894       12.471      455.082      395.768      155.516        0.192        0.050       52.613        3.324        0.004      335.729        6.559      861.691
02/09/2014  07:45:00      -32.274      -21.714       -7.794       16.545       27.029       16.349      273.744      730.571      267.288        0.142        0.064       38.898       10.390        0.071      335.730        6.558      861.720
02/09/2014  07:46:00      -14.333      -20.151        2.498       27.309       23.058       16.318      745.773      531.665      266.283        0.108        0.077       24.729        6.643        0.072      335.762        6.615      861.733
02/09/2014  07:47:00      -41.446       12.742        9.781       29.208       28.517       20.904      853.123      813.206      436.987        0.204        0.105       43.360       12.330        0.081      335.771        6.626      861.714
02/09/2014  07:48:00      -65.122       79.638       -4.303       28.156       27.924       19.058      792.750      779.760      363.222        0.627        0.097      102.874       16.932        0.027      335.884        6.815      861.706
02/09/2014  07:49:00      -52.550       77.463       -9.951       26.833       21.950       15.212      720.005      481.822      231.397        0.515        0.072       93.606       13.210        0.020      335.861        6.777      861.694
02/09/2014  07:50:00      -66.435       79.397      -17.422       17.048       17.345       13.776      290.645      300.860      189.782        0.590        0.039      103.525        7.787        0.006      335.768        6.623      861.675
02/09/2014  07:51:00      -63.292       64.418      -15.103       15.481       11.457       11.560      239.667      131.257      133.632        0.444        0.025       90.308        9.593        0.011      335.810        6.692      861.682
02/09/2014  07:52:00      -65.729       35.948      -11.715       16.189       13.043       11.670      262.071      170.114      136.185        0.316        0.028       74.917        6.084        0.007      335.823        6.714      861.692
02/09/2014  07:53:00      -63.261       24.427       -2.175       19.196       18.653       12.838      368.491      347.917      164.824        0.274        0.044       67.813        8.353        0.015      335.818        6.706      861.692
02/09/2014  07:54:00      -54.092       11.099       -3.884       18.315       10.188        7.395      335.436      103.786       54.681        0.178        0.025       55.219        3.931        0.005      335.879        6.807      861.712
02/09/2014  07:55:00      -35.730       16.058        0.476       11.725       10.144       10.294      137.477      102.896      105.964        0.094        0.017       39.173        7.061        0.032      335.895        6.833      861.717
02/09/2014  07:56:00      -27.198        8.054        2.771       17.649       10.653       10.005      311.495      113.477      100.110        0.067        0.026       28.365        9.822        0.120      335.922        6.880      861.711
02/09/2014  07:57:00      -47.538       15.712        0.205       14.429       12.261        8.386      208.196      150.332       70.332        0.147        0.021       50.067        7.138        0.020      335.942        6.909      861.712
02/09/2014  07:58:00      -46.942        4.567        3.865        8.370       12.622        6.631       70.056      159.304       43.976        0.126        0.014       47.163        5.780        0.015      335.994        6.997      861.729
02/09/2014  07:59:00      -30.372      -19.464        1.813       24.679       16.280       14.555      609.056      265.037      211.852        0.120        0.054       36.074       10.814        0.090      335.965        6.950      861.745
02/09/2014  08:00:00        4.738      -30.684       14.325       19.703       31.558       18.359      388.193      995.914      337.055        0.144        0.086       31.047       21.666        0.487      336.038        7.071      861.773
02/09/2014  08:01:00        9.581       14.287       24.337       22.636       21.864       17.537      512.408      478.044      307.536        0.109        0.065       17.202       19.845        1.331      335.901        6.843      861.785
02/09/2014  08:02:00       -5.586       -0.391       10.030       10.472       16.763       14.476      109.663      281.002      209.545        0.037        0.030        5.600       12.660        5.111      335.923        6.880      861.797
02/09/2014  08:03:00       15.091       21.645        2.702       10.893        8.195       17.338      118.661       67.160      300.595        0.059        0.024       26.386       11.124        0.178      335.726        6.552      861.814
02/09/2014  08:04:00       28.042       18.228       -1.793       12.229        9.733        7.349      149.554       94.722       54.012        0.071        0.015       33.446        3.591        0.012      335.726        6.553      861.845
02/09/2014  08:05:00       13.877        8.003        4.107       12.914        7.199        4.649      166.762       51.828       21.612        0.026        0.012       16.019        3.466        0.047      335.857        6.768      861.865
02/09/2014  08:06:00        8.603       14.687        7.972       12.887       10.009        6.357      166.062      100.184       40.408        0.033        0.015       17.022        5.414        0.101      335.832        6.725      861.876
02/09/2014  08:07:00       11.704       -0.987       -7.621       14.484       20.422        7.986      209.777      417.039       63.770        0.044        0.035       11.745        2.989        0.065      335.814        6.698      861.874
02/09/2014  08:08:00      -25.754       -7.820       -0.895       17.266        6.672        8.951      298.109       44.518       80.123        0.057        0.021       26.915        8.726        0.105      335.832        6.729      861.894
02/09/2014  08:09:00      -36.880      -24.351       -1.218       25.911       19.162       13.225      671.361      367.191      174.909        0.158        0.061       44.194        9.954        0.051      335.902        6.846      861.917
02/09/2014  08:10:00      -36.886      -43.001        2.802       19.425       41.382       11.953      377.329     1712.464      142.863        0.272        0.112       56.654       16.158        0.081      336.014        7.031      861.909
02/09/2014  08:11:00      -15.435      -14.103       11.766       28.369       17.631       14.085      804.823      310.847      198.395        0.094        0.066       20.908       17.401        0.693      336.016        7.033      861.890
02/09/2014  08:12:00       -8.354      -22.746        7.953       11.176       21.191        8.912      124.904      449.048       79.422        0.065        0.033       24.231        9.409        0.151      336.049        7.088      861.876
02/09/2014  08:13:00       14.340       16.452        9.856       18.746        7.950       10.914      351.415       63.199      119.121        0.055        0.027       21.825        9.190        0.177      335.957        6.937      861.851
02/09/2014  08:14:00      -16.118       28.378        7.820       18.064       20.581       10.586      326.294      423.581      112.056        0.099        0.043       32.636        7.275        0.050      335.950        6.924      861.842
02/09/2014  08:15:00       -2.772        2.677       -1.172       11.283       21.297       11.384      127.297      453.561      129.600        0.036        0.036        3.854       10.240        7.059      335.983        6.977      861.838
02/09/2014  08:16:00      -42.700      -38.092       -2.226       26.439       17.231       11.120      699.002      296.921      123.644        0.220        0.056       57.221        9.308        0.026      336.056        7.101      861.858
02/09/2014  08:17:00      -37.482      -55.911       -0.617       45.014       27.574       21.305     2026.305      760.341      453.883        0.389        0.162       67.313       15.615        0.054      336.071        7.126      861.890
02/09/2014  08:18:00      -58.284      -87.273       -6.000       21.385       25.917       18.285      457.331      671.671      334.339        0.626        0.073      104.946       13.573        0.017      336.016        7.034      861.881
02/09/2014  08:19:00      -23.829       -0.079       20.352       19.078       26.500       17.372      363.963      702.229      301.787        0.117        0.068       23.829       18.931        0.631      336.079        7.139      861.918
02/09/2014  08:20:00      -43.121       -1.221       12.176       46.733       31.054       22.367     2184.015      964.357      500.276        0.283        0.182       43.138       24.516        0.323      336.051        7.093      861.947
